ANA415 RJTT-YSSY
Flight info
| Callsign | ANA415 |
|---|---|
| Flight time | 8h 57m |
| Altitude | 36000 |
| Route | ISOGO3 BAFFY TOPIT IPMAK BETBO CADDY/N0498F370 UKATA TOMOL VASKO KAGUN OMLET DCT TOESS DCT WINZR DCT HURUG DCT KAPOK DCT HUTEL DCT NUTTI DCT PIKOK/N0493F390 DCT NZ DCT PY DCT APISO DCT NONIR DCT OVRON DCT MK DCT MAGRA DCT ALAXU DCT RILGO DCT ROKUU DCT UBLUK DCT AVBOS DCT OVNOM DCT IDOGI DCT LALIB DCT IGDAM DCT SADLO DCT BOREE BORE4A0 |
| Aircraft | B789/H-SDE1E2E3FGHIJ2J3J4J5M1RWXY/LB1D1 |
Departure
| Time | 2026-04-26 08:38 |
|---|---|
| Airport | Tokyo Haneda International Airport (RJTT) |
Arrival
| Time | 2026-04-26 17:36 |
|---|---|
| Airport | Sydney Kingsford Smith International Airport (YSSY) |
| Time | Latitude | Longitude | Altitude | Speed | Heading |
|---|---|---|---|---|---|
| 2026-04-26 07:56 | 35.55214 | 139.78009 | 29 ft | 0 kts | 150° |
| 2026-04-26 08:20 | 35.55225 | 139.78001 | 28 ft | 3 kts | 150° |
| 2026-04-26 08:21 | 35.55242 | 139.77991 | 27 ft | 3 kts | 176° |
| 2026-04-26 08:21 | 35.55260 | 139.77995 | 28 ft | 3 kts | 216° |
| 2026-04-26 08:21 | 35.55269 | 139.78005 | 28 ft | 0 kts | 240° |
| 2026-04-26 08:23 | 35.55265 | 139.77996 | 28 ft | 2 kts | 244° |
| 2026-04-26 08:23 | 35.55255 | 139.77969 | 29 ft | 5 kts | 246° |
| 2026-04-26 08:24 | 35.55241 | 139.77924 | 29 ft | 7 kts | 250° |
| 2026-04-26 08:24 | 35.55230 | 139.77859 | 29 ft | 8 kts | 272° |
| 2026-04-26 08:24 | 35.55234 | 139.77782 | 29 ft | 10 kts | 272° |
| 2026-04-26 08:24 | 35.55213 | 139.77747 | 29 ft | 3 kts | 194° |
| 2026-04-26 08:25 | 35.55194 | 139.77749 | 29 ft | 3 kts | 168° |
| 2026-04-26 08:25 | 35.55168 | 139.77758 | 27 ft | 5 kts | 160° |
| 2026-04-26 08:25 | 35.55131 | 139.77781 | 29 ft | 8 kts | 153° |
| 2026-04-26 08:25 | 35.55069 | 139.77821 | 29 ft | 12 kts | 150° |
| 2026-04-26 08:26 | 35.54989 | 139.77878 | 29 ft | 14 kts | 150° |
| 2026-04-26 08:26 | 35.54914 | 139.77931 | 29 ft | 11 kts | 150° |
| 2026-04-26 08:26 | 35.54909 | 139.77934 | 29 ft | 0 kts | 150° |
| 2026-04-26 08:26 | 35.54906 | 139.77936 | 29 ft | 1 kts | 150° |
| 2026-04-26 08:27 | 35.54898 | 139.77942 | 29 ft | 2 kts | 149° |
| 2026-04-26 08:27 | 35.54881 | 139.77957 | 28 ft | 4 kts | 140° |
| 2026-04-26 08:27 | 35.54857 | 139.77994 | 29 ft | 6 kts | 114° |
| 2026-04-26 08:27 | 35.54860 | 139.78044 | 29 ft | 6 kts | 60° |
| 2026-04-26 08:28 | 35.54889 | 139.78061 | 29 ft | 5 kts | 5° |
| 2026-04-26 08:28 | 35.54924 | 139.78050 | 29 ft | 6 kts | 339° |
| 2026-04-26 08:28 | 35.54972 | 139.78020 | 29 ft | 10 kts | 332° |
| 2026-04-26 08:28 | 35.55049 | 139.77968 | 29 ft | 15 kts | 330° |
| 2026-04-26 08:29 | 35.55148 | 139.77896 | 29 ft | 17 kts | 329° |
| 2026-04-26 08:29 | 35.55229 | 139.77814 | 29 ft | 14 kts | 294° |
| 2026-04-26 08:29 | 35.55248 | 139.77706 | 29 ft | 12 kts | 302° |
| 2026-04-26 08:29 | 35.55310 | 139.77652 | 29 ft | 11 kts | 329° |
| 2026-04-26 08:30 | 35.55377 | 139.77603 | 29 ft | 12 kts | 329° |
| 2026-04-26 08:30 | 35.55451 | 139.77551 | 29 ft | 13 kts | 330° |
| 2026-04-26 08:30 | 35.55534 | 139.77493 | 28 ft | 14 kts | 330° |
| 2026-04-26 08:30 | 35.55623 | 139.77430 | 28 ft | 15 kts | 330° |
| 2026-04-26 08:31 | 35.55718 | 139.77364 | 27 ft | 16 kts | 330° |
| 2026-04-26 08:31 | 35.55808 | 139.77300 | 28 ft | 11 kts | 329° |
| 2026-04-26 08:31 | 35.55850 | 139.77269 | 28 ft | 11 kts | 329° |
| 2026-04-26 08:31 | 35.55885 | 139.77244 | 28 ft | 0 kts | 331° |
| 2026-04-26 08:32 | 35.55887 | 139.77243 | 28 ft | 0 kts | 341° |
| 2026-04-26 08:32 | 35.55891 | 139.77244 | 28 ft | 1 kts | 1° |
| 2026-04-26 08:32 | 35.55899 | 139.77250 | 28 ft | 3 kts | 32° |
| 2026-04-26 08:33 | 35.55941 | 139.77287 | 28 ft | 12 kts | 35° |
| 2026-04-26 08:33 | 35.56030 | 139.77365 | 27 ft | 19 kts | 36° |
| 2026-04-26 08:33 | 35.56136 | 139.77457 | 28 ft | 18 kts | 36° |
| 2026-04-26 08:33 | 35.56221 | 139.77531 | 28 ft | 10 kts | 34° |
| 2026-04-26 08:34 | 35.56245 | 139.77551 | 27 ft | 0 kts | 34° |
| 2026-04-26 08:34 | 35.56247 | 139.77553 | 27 ft | 2 kts | 34° |
| 2026-04-26 08:35 | 35.56268 | 139.77570 | 28 ft | 6 kts | 34° |
| 2026-04-26 08:35 | 35.56308 | 139.77609 | 28 ft | 9 kts | 47° |
| 2026-04-26 08:35 | 35.56349 | 139.77683 | 28 ft | 12 kts | 60° |
| 2026-04-26 08:35 | 35.56397 | 139.77785 | 27 ft | 15 kts | 59° |
| 2026-04-26 08:36 | 35.56457 | 139.77907 | 28 ft | 17 kts | 59° |
| 2026-04-26 08:36 | 35.56529 | 139.78013 | 28 ft | 14 kts | 11° |
| 2026-04-26 08:36 | 35.56589 | 139.77968 | 28 ft | 9 kts | 304° |
| 2026-04-26 08:36 | 35.56623 | 139.77905 | 28 ft | 9 kts | 303° |
| 2026-04-26 08:37 | 35.56659 | 139.77839 | 28 ft | 10 kts | 304° |
| 2026-04-26 08:37 | 35.56696 | 139.77770 | 29 ft | 9 kts | 298° |
| 2026-04-26 08:37 | 35.56697 | 139.77688 | 30 ft | 13 kts | 245° |
| 2026-04-26 08:37 | 35.56587 | 139.77562 | 30 ft | 39 kts | 214° |
| 2026-04-26 08:38 | 35.56204 | 139.77236 | 30 ft | 96 kts | 214° |
| 2026-04-26 08:38 | 35.55507 | 139.76644 | 31 ft | 146 kts | 215° |
| 2026-04-26 08:38 | 35.54588 | 139.75835 | 273 ft | 165 kts | 220° |
| 2026-04-26 08:38 | 35.53707 | 139.75189 | 1153 ft | 141 kts | 202° |
| 2026-04-26 08:39 | 35.52703 | 139.75000 | 1491 ft | 156 kts | 169° |
| 2026-04-26 08:39 | 35.51590 | 139.75264 | 1983 ft | 168 kts | 169° |
| 2026-04-26 08:39 | 35.50413 | 139.75480 | 2647 ft | 173 kts | 173° |
| 2026-04-26 08:39 | 35.49203 | 139.75639 | 3343 ft | 177 kts | 174° |
| 2026-04-26 08:40 | 35.47943 | 139.75783 | 3931 ft | 186 kts | 175° |
| 2026-04-26 08:40 | 35.46633 | 139.75930 | 4521 ft | 197 kts | 175° |
| 2026-04-26 08:40 | 35.45222 | 139.76098 | 5043 ft | 209 kts | 174° |
| 2026-04-26 08:40 | 35.43747 | 139.76267 | 5584 ft | 222 kts | 179° |
| 2026-04-26 08:41 | 35.42116 | 139.76245 | 5801 ft | 242 kts | 185° |
| 2026-04-26 08:41 | 35.40413 | 139.76112 | 6473 ft | 251 kts | 186° |
| 2026-04-26 08:41 | 35.38638 | 139.76063 | 7167 ft | 253 kts | 181° |
| 2026-04-26 08:41 | 35.36854 | 139.76145 | 7751 ft | 269 kts | 180° |
| 2026-04-26 08:42 | 35.34903 | 139.76191 | 8224 ft | 284 kts | 184° |
| 2026-04-26 08:42 | 35.32927 | 139.76185 | 9049 ft | 291 kts | 183° |
| 2026-04-26 08:42 | 35.30856 | 139.76179 | 8938 ft | 295 kts | 183° |
| 2026-04-26 08:42 | 35.28849 | 139.76190 | 8901 ft | 283 kts | 183° |
| 2026-04-26 08:43 | 35.26917 | 139.76198 | 8891 ft | 281 kts | 183° |
| 2026-04-26 08:43 | 35.24939 | 139.76200 | 8902 ft | 281 kts | 183° |
| 2026-04-26 08:43 | 35.22984 | 139.76204 | 8911 ft | 281 kts | 183° |
| 2026-04-26 08:43 | 35.21032 | 139.76159 | 8928 ft | 279 kts | 192° |
| 2026-04-26 08:44 | 35.19236 | 139.75365 | 8951 ft | 275 kts | 211° |
| 2026-04-26 08:44 | 35.17583 | 139.74232 | 8968 ft | 277 kts | 213° |
| 2026-04-26 08:44 | 35.15929 | 139.73018 | 9099 ft | 280 kts | 213° |
| 2026-04-26 08:44 | 35.14280 | 139.71827 | 10047 ft | 274 kts | 213° |
| 2026-04-26 08:45 | 35.12563 | 139.70606 | 10365 ft | 299 kts | 212° |
| 2026-04-26 08:45 | 35.10685 | 139.69275 | 10544 ft | 326 kts | 212° |
| 2026-04-26 08:45 | 35.08650 | 139.67831 | 10861 ft | 351 kts | 212° |
| 2026-04-26 08:45 | 35.06495 | 139.66303 | 11118 ft | 364 kts | 212° |
| 2026-04-26 08:46 | 35.04315 | 139.64760 | 11123 ft | 360 kts | 212° |
| 2026-04-26 08:46 | 35.02166 | 139.63237 | 11114 ft | 357 kts | 212° |
| 2026-04-26 08:46 | 35.00019 | 139.61715 | 11115 ft | 357 kts | 212° |
| 2026-04-26 08:46 | 34.97876 | 139.60197 | 11112 ft | 356 kts | 212° |
| 2026-04-26 08:47 | 34.95730 | 139.58679 | 11107 ft | 357 kts | 212° |
| 2026-04-26 08:47 | 34.93582 | 139.57160 | 11099 ft | 357 kts | 212° |
| 2026-04-26 08:47 | 34.91435 | 139.55643 | 11103 ft | 357 kts | 212° |
| 2026-04-26 08:47 | 34.89274 | 139.54116 | 11694 ft | 357 kts | 212° |
| 2026-04-26 08:48 | 34.87117 | 139.52594 | 12537 ft | 361 kts | 211° |
| 2026-04-26 08:48 | 34.84933 | 139.51052 | 13296 ft | 366 kts | 211° |
| 2026-04-26 08:48 | 34.82723 | 139.49494 | 14052 ft | 370 kts | 211° |
| 2026-04-26 08:48 | 34.80490 | 139.47920 | 14772 ft | 372 kts | 211° |
| 2026-04-26 08:49 | 34.78232 | 139.46358 | 15484 ft | 375 kts | 208° |
| 2026-04-26 08:49 | 34.75739 | 139.45371 | 16123 ft | 382 kts | 193° |
| 2026-04-26 08:49 | 34.73067 | 139.45178 | 16731 ft | 391 kts | 178° |
| 2026-04-26 08:49 | 34.70398 | 139.45844 | 17373 ft | 401 kts | 163° |
| 2026-04-26 08:50 | 34.67888 | 139.47402 | 17989 ft | 413 kts | 148° |
| 2026-04-26 08:50 | 34.65764 | 139.49805 | 18560 ft | 424 kts | 133° |
| 2026-04-26 08:50 | 34.63902 | 139.52612 | 19044 ft | 429 kts | 132° |
| 2026-04-26 08:50 | 34.62062 | 139.55473 | 19560 ft | 433 kts | 131° |
| 2026-04-26 08:51 | 34.58307 | 139.61264 | 20634 ft | 439 kts | 132° |
| 2026-04-26 08:51 | 34.56393 | 139.64172 | 21138 ft | 443 kts | 132° |
| 2026-04-26 08:51 | 34.54471 | 139.67114 | 21627 ft | 447 kts | 132° |
| 2026-04-26 08:52 | 34.52541 | 139.70079 | 22114 ft | 450 kts | 132° |
| 2026-04-26 08:52 | 34.50587 | 139.73066 | 22591 ft | 453 kts | 132° |
| 2026-04-26 08:52 | 34.48619 | 139.76063 | 23025 ft | 457 kts | 132° |
| 2026-04-26 08:52 | 34.46622 | 139.79105 | 23103 ft | 466 kts | 132° |
| 2026-04-26 08:53 | 34.44620 | 139.82165 | 23696 ft | 462 kts | 133° |
| 2026-04-26 08:53 | 34.42612 | 139.85225 | 24059 ft | 466 kts | 133° |
| 2026-04-26 08:53 | 34.40588 | 139.88298 | 24449 ft | 468 kts | 133° |
| 2026-04-26 08:53 | 34.38546 | 139.91379 | 24817 ft | 469 kts | 136° |
| 2026-04-26 08:54 | 34.36206 | 139.94074 | 25167 ft | 462 kts | 148° |
| 2026-04-26 08:54 | 34.33540 | 139.96167 | 25552 ft | 453 kts | 159° |
| 2026-04-26 08:54 | 34.30700 | 139.97606 | 25928 ft | 445 kts | 170° |
| 2026-04-26 08:54 | 34.27666 | 139.98420 | 26328 ft | 437 kts | 180° |
| 2026-04-26 08:55 | 34.24649 | 139.98826 | 26697 ft | 437 kts | 180° |
| 2026-04-26 08:55 | 34.21666 | 139.99226 | 27114 ft | 437 kts | 181° |
| 2026-04-26 08:55 | 34.18643 | 139.99512 | 27508 ft | 432 kts | 187° |
| 2026-04-26 08:55 | 34.15636 | 139.99479 | 27813 ft | 434 kts | 186° |
| 2026-04-26 08:56 | 34.12616 | 139.99485 | 28219 ft | 434 kts | 186° |
| 2026-04-26 08:56 | 34.09595 | 139.99491 | 28609 ft | 435 kts | 187° |
| 2026-04-26 08:56 | 34.06574 | 139.99479 | 28981 ft | 435 kts | 187° |
| 2026-04-26 08:56 | 34.03543 | 139.99465 | 29349 ft | 436 kts | 187° |
| 2026-04-26 08:57 | 34.00501 | 139.99459 | 29710 ft | 437 kts | 187° |
| 2026-04-26 08:57 | 33.97464 | 139.99455 | 30031 ft | 438 kts | 187° |
| 2026-04-26 08:57 | 33.94406 | 139.99448 | 30252 ft | 442 kts | 187° |
| 2026-04-26 08:57 | 33.91332 | 139.99440 | 30522 ft | 443 kts | 187° |
| 2026-04-26 08:58 | 33.88247 | 139.99433 | 30768 ft | 445 kts | 187° |
| 2026-04-26 08:58 | 33.85148 | 139.99426 | 31016 ft | 446 kts | 187° |
| 2026-04-26 08:58 | 33.82035 | 139.99419 | 31256 ft | 448 kts | 187° |
| 2026-04-26 08:58 | 33.78918 | 139.99412 | 31491 ft | 449 kts | 187° |
| 2026-04-26 08:59 | 33.75786 | 139.99404 | 31727 ft | 451 kts | 187° |
| 2026-04-26 08:59 | 33.72658 | 139.99398 | 32037 ft | 450 kts | 187° |
| 2026-04-26 08:59 | 33.69532 | 139.99392 | 32387 ft | 449 kts | 187° |
| 2026-04-26 08:59 | 33.66414 | 139.99385 | 32727 ft | 448 kts | 187° |
| 2026-04-26 09:00 | 33.63304 | 139.99377 | 33074 ft | 446 kts | 187° |
| 2026-04-26 09:00 | 33.60204 | 139.99370 | 33420 ft | 445 kts | 188° |
| 2026-04-26 09:00 | 33.57118 | 139.99364 | 33730 ft | 444 kts | 188° |
| 2026-04-26 09:00 | 33.54033 | 139.99357 | 34083 ft | 442 kts | 188° |
| 2026-04-26 09:01 | 33.50960 | 139.99349 | 34363 ft | 442 kts | 188° |
| 2026-04-26 09:01 | 33.47887 | 139.99341 | 34614 ft | 441 kts | 188° |
| 2026-04-26 09:01 | 33.44818 | 139.99335 | 34882 ft | 441 kts | 189° |
| 2026-04-26 09:01 | 33.41795 | 139.99329 | 35141 ft | 440 kts | 189° |
| 2026-04-26 09:02 | 33.38693 | 139.99321 | 35393 ft | 439 kts | 189° |
| 2026-04-26 09:02 | 33.35678 | 139.99315 | 35635 ft | 439 kts | 189° |
| 2026-04-26 09:02 | 33.32624 | 139.99307 | 35816 ft | 440 kts | 189° |
| 2026-04-26 09:02 | 33.29550 | 139.99298 | 35960 ft | 442 kts | 189° |
| 2026-04-26 09:03 | 33.26472 | 139.99292 | 36089 ft | 444 kts | 189° |
| 2026-04-26 09:03 | 33.20255 | 139.99279 | 36073 ft | 446 kts | 189° |
| 2026-04-26 09:04 | 33.14100 | 139.99267 | 36068 ft | 444 kts | 190° |
| 2026-04-26 09:04 | 33.07898 | 139.99249 | 36059 ft | 446 kts | 190° |
| 2026-04-26 09:05 | 33.01688 | 139.99239 | 36062 ft | 446 kts | 190° |
| 2026-04-26 09:05 | 32.95479 | 139.99223 | 36048 ft | 446 kts | 190° |
| 2026-04-26 09:06 | 32.89265 | 139.99209 | 36147 ft | 447 kts | 190° |
| 2026-04-26 09:06 | 32.86152 | 139.99202 | 36261 ft | 448 kts | 190° |
| 2026-04-26 09:06 | 32.83037 | 139.99196 | 36254 ft | 446 kts | 190° |
| 2026-04-26 09:07 | 32.76912 | 139.99185 | 36251 ft | 437 kts | 190° |
| 2026-04-26 09:07 | 32.70805 | 139.99159 | 36238 ft | 442 kts | 190° |
| 2026-04-26 09:07 | 32.67728 | 139.99156 | 36452 ft | 442 kts | 190° |
| 2026-04-26 09:08 | 32.64653 | 139.99153 | 36651 ft | 442 kts | 190° |
| 2026-04-26 09:08 | 32.61577 | 139.99143 | 36850 ft | 442 kts | 191° |
| 2026-04-26 09:08 | 32.58501 | 139.99133 | 37050 ft | 442 kts | 191° |
| 2026-04-26 09:08 | 32.55423 | 139.99126 | 37233 ft | 443 kts | 191° |
| 2026-04-26 09:09 | 32.52343 | 139.99119 | 37369 ft | 443 kts | 191° |
| 2026-04-26 09:09 | 32.49258 | 139.99112 | 37562 ft | 443 kts | 191° |
| 2026-04-26 09:09 | 32.46216 | 139.99104 | 37752 ft | 443 kts | 191° |
| 2026-04-26 09:09 | 32.43088 | 139.99096 | 37942 ft | 443 kts | 191° |
| 2026-04-26 09:10 | 32.40045 | 139.99087 | 38054 ft | 445 kts | 191° |
| 2026-04-26 09:10 | 32.33863 | 139.99070 | 37999 ft | 444 kts | 191° |
| 2026-04-26 09:11 | 32.27772 | 139.99055 | 38041 ft | 441 kts | 191° |
| 2026-04-26 09:11 | 32.21633 | 139.99033 | 38043 ft | 444 kts | 191° |
| 2026-04-26 09:12 | 32.15480 | 139.99021 | 38047 ft | 445 kts | 191° |
| 2026-04-26 09:12 | 32.09331 | 139.99004 | 38050 ft | 442 kts | 191° |
| 2026-04-26 09:13 | 32.03235 | 139.98986 | 38042 ft | 441 kts | 191° |
| 2026-04-26 09:13 | 31.97118 | 139.98970 | 38035 ft | 441 kts | 191° |
| 2026-04-26 09:14 | 31.91008 | 139.98952 | 38033 ft | 441 kts | 191° |
| 2026-04-26 09:14 | 31.84928 | 139.98937 | 38050 ft | 440 kts | 191° |
| 2026-04-26 09:15 | 31.78837 | 139.98919 | 38047 ft | 440 kts | 191° |
| 2026-04-26 09:15 | 31.72751 | 139.98904 | 38047 ft | 440 kts | 191° |
| 2026-04-26 09:16 | 31.66656 | 139.98887 | 38045 ft | 440 kts | 191° |
| 2026-04-26 09:16 | 31.60604 | 139.98870 | 38046 ft | 440 kts | 191° |
| 2026-04-26 09:17 | 31.54479 | 139.98854 | 38048 ft | 441 kts | 191° |
| 2026-04-26 09:17 | 31.48359 | 139.98837 | 38043 ft | 440 kts | 190° |
| 2026-04-26 09:18 | 31.42280 | 139.98822 | 38045 ft | 439 kts | 190° |
| 2026-04-26 09:18 | 31.36206 | 139.98804 | 38045 ft | 439 kts | 190° |
| 2026-04-26 09:19 | 31.30164 | 139.98789 | 38042 ft | 439 kts | 190° |
| 2026-04-26 09:19 | 31.24095 | 139.98773 | 38043 ft | 437 kts | 190° |
| 2026-04-26 09:20 | 31.18059 | 139.98756 | 38038 ft | 436 kts | 190° |
| 2026-04-26 09:20 | 31.12019 | 139.98739 | 38036 ft | 436 kts | 190° |
| 2026-04-26 09:21 | 31.06952 | 139.98727 | 38035 ft | 436 kts | 190° |
| 2026-04-26 09:21 | 31.00913 | 139.98905 | 38054 ft | 445 kts | 183° |
| 2026-04-26 09:21 | 30.97839 | 139.99549 | 38053 ft | 457 kts | 176° |
| 2026-04-26 09:22 | 30.94771 | 140.00615 | 38036 ft | 463 kts | 174° |
| 2026-04-26 09:22 | 30.88652 | 140.02823 | 38049 ft | 463 kts | 174° |
| 2026-04-26 09:23 | 30.82603 | 140.05019 | 38033 ft | 461 kts | 174° |
| 2026-04-26 09:23 | 30.76549 | 140.07207 | 38036 ft | 459 kts | 174° |
| 2026-04-26 09:24 | 30.70495 | 140.09392 | 38034 ft | 460 kts | 174° |
| 2026-04-26 09:24 | 30.64408 | 140.11590 | 38036 ft | 460 kts | 174° |
| 2026-04-26 09:25 | 30.58313 | 140.13784 | 38040 ft | 461 kts | 174° |
| 2026-04-26 09:25 | 30.52213 | 140.15979 | 38044 ft | 461 kts | 174° |
| 2026-04-26 09:26 | 30.46112 | 140.18171 | 38041 ft | 461 kts | 174° |
| 2026-04-26 09:26 | 30.40021 | 140.20357 | 38041 ft | 460 kts | 174° |
| 2026-04-26 09:27 | 30.33911 | 140.22546 | 38042 ft | 461 kts | 174° |
| 2026-04-26 09:27 | 30.27817 | 140.24727 | 38039 ft | 461 kts | 174° |
| 2026-04-26 09:28 | 30.21717 | 140.26907 | 38040 ft | 463 kts | 174° |
| 2026-04-26 09:28 | 30.15589 | 140.29096 | 38041 ft | 462 kts | 174° |
| 2026-04-26 09:29 | 30.09477 | 140.31274 | 38015 ft | 461 kts | 174° |
| 2026-04-26 09:29 | 30.03371 | 140.33447 | 38035 ft | 462 kts | 174° |
| 2026-04-26 09:30 | 29.97369 | 140.36232 | 38062 ft | 479 kts | 164° |
| 2026-04-26 09:30 | 29.91479 | 140.39735 | 38044 ft | 478 kts | 164° |
| 2026-04-26 09:31 | 29.85591 | 140.43228 | 38044 ft | 479 kts | 164° |
| 2026-04-26 09:31 | 29.79682 | 140.46734 | 38045 ft | 480 kts | 164° |
| 2026-04-26 09:32 | 29.73774 | 140.50230 | 38049 ft | 480 kts | 164° |
| 2026-04-26 09:32 | 29.67856 | 140.53730 | 38050 ft | 480 kts | 164° |
| 2026-04-26 09:33 | 29.61957 | 140.57213 | 38052 ft | 480 kts | 164° |
| 2026-04-26 09:33 | 29.56036 | 140.60705 | 38055 ft | 480 kts | 164° |
| 2026-04-26 09:34 | 29.50165 | 140.64162 | 38041 ft | 480 kts | 163° |
| 2026-04-26 09:34 | 29.44197 | 140.67673 | 38041 ft | 481 kts | 163° |
| 2026-04-26 09:35 | 29.38281 | 140.71148 | 38041 ft | 481 kts | 163° |
| 2026-04-26 09:35 | 29.32340 | 140.74632 | 38039 ft | 482 kts | 163° |
| 2026-04-26 09:36 | 29.26487 | 140.78061 | 38047 ft | 484 kts | 163° |
| 2026-04-26 09:36 | 29.20484 | 140.81575 | 38046 ft | 483 kts | 163° |
| 2026-04-26 09:37 | 29.14577 | 140.85026 | 38053 ft | 483 kts | 163° |
| 2026-04-26 09:37 | 29.08688 | 140.88461 | 38048 ft | 484 kts | 163° |
| 2026-04-26 09:38 | 29.02738 | 140.91930 | 38047 ft | 484 kts | 163° |
| 2026-04-26 09:38 | 28.96662 | 140.95465 | 38039 ft | 484 kts | 163° |
| 2026-04-26 09:39 | 28.90689 | 140.98937 | 38050 ft | 486 kts | 163° |
| 2026-04-26 09:39 | 28.84704 | 141.02413 | 38052 ft | 486 kts | 163° |
| 2026-04-26 09:40 | 28.78720 | 141.05881 | 38025 ft | 486 kts | 163° |
| 2026-04-26 09:40 | 28.72756 | 141.09336 | 38043 ft | 484 kts | 162° |
| 2026-04-26 09:41 | 28.66804 | 141.12777 | 38039 ft | 483 kts | 163° |
| 2026-04-26 09:41 | 28.60849 | 141.16216 | 38037 ft | 482 kts | 162° |
| 2026-04-26 09:42 | 28.54922 | 141.19632 | 38048 ft | 485 kts | 162° |
| 2026-04-26 09:42 | 28.48919 | 141.23092 | 38056 ft | 487 kts | 162° |
| 2026-04-26 09:43 | 28.42867 | 141.26574 | 38060 ft | 487 kts | 162° |
| 2026-04-26 09:43 | 28.36822 | 141.30046 | 38046 ft | 487 kts | 162° |
| 2026-04-26 09:44 | 28.30690 | 141.33108 | 38070 ft | 473 kts | 173° |
| 2026-04-26 09:44 | 28.24322 | 141.34636 | 38055 ft | 468 kts | 177° |
| 2026-04-26 09:45 | 28.17924 | 141.36037 | 38055 ft | 469 kts | 177° |
| 2026-04-26 09:45 | 28.11497 | 141.37446 | 38059 ft | 471 kts | 177° |
| 2026-04-26 09:46 | 28.05058 | 141.38857 | 38065 ft | 471 kts | 177° |
| 2026-04-26 09:46 | 27.98631 | 141.40262 | 38038 ft | 470 kts | 177° |
| 2026-04-26 09:47 | 27.92207 | 141.41664 | 38048 ft | 471 kts | 176° |
| 2026-04-26 09:47 | 27.85770 | 141.43069 | 38052 ft | 472 kts | 176° |
| 2026-04-26 09:48 | 27.79367 | 141.44463 | 38054 ft | 472 kts | 176° |
| 2026-04-26 09:48 | 27.72919 | 141.45866 | 38056 ft | 472 kts | 176° |
| 2026-04-26 09:49 | 27.66470 | 141.47268 | 38060 ft | 472 kts | 176° |
| 2026-04-26 09:49 | 27.60021 | 141.48668 | 38060 ft | 472 kts | 176° |
| 2026-04-26 09:50 | 27.53576 | 141.50065 | 38062 ft | 472 kts | 176° |
| 2026-04-26 09:50 | 27.47114 | 141.51464 | 38067 ft | 474 kts | 176° |
| 2026-04-26 09:51 | 27.40647 | 141.52864 | 38068 ft | 473 kts | 176° |
| 2026-04-26 09:51 | 27.34186 | 141.54259 | 38072 ft | 473 kts | 176° |
| 2026-04-26 09:52 | 27.27724 | 141.55653 | 38065 ft | 473 kts | 176° |
| 2026-04-26 09:52 | 27.18007 | 141.57747 | 38072 ft | 474 kts | 176° |
| 2026-04-26 09:53 | 27.11526 | 141.59141 | 38066 ft | 474 kts | 176° |
| 2026-04-26 09:53 | 27.05081 | 141.60526 | 38064 ft | 475 kts | 176° |
| 2026-04-26 09:54 | 26.98573 | 141.61923 | 38072 ft | 476 kts | 176° |
| 2026-04-26 09:54 | 26.92079 | 141.63316 | 38070 ft | 475 kts | 176° |
| 2026-04-26 09:55 | 26.85600 | 141.64703 | 38066 ft | 474 kts | 175° |
| 2026-04-26 09:55 | 26.79106 | 141.66091 | 38073 ft | 477 kts | 175° |
| 2026-04-26 09:56 | 26.72585 | 141.67485 | 38073 ft | 477 kts | 175° |
| 2026-04-26 09:56 | 26.66080 | 141.68873 | 38050 ft | 475 kts | 175° |
| 2026-04-26 09:57 | 26.59579 | 141.70258 | 38068 ft | 477 kts | 175° |
| 2026-04-26 09:57 | 26.53058 | 141.71647 | 38073 ft | 477 kts | 175° |
| 2026-04-26 09:58 | 26.46528 | 141.73035 | 38074 ft | 478 kts | 175° |
| 2026-04-26 09:58 | 26.39997 | 141.74422 | 38072 ft | 478 kts | 175° |
| 2026-04-26 09:59 | 26.34558 | 141.75576 | 38079 ft | 479 kts | 175° |
| 2026-04-26 09:59 | 26.26920 | 141.77195 | 38076 ft | 477 kts | 175° |
| 2026-04-26 10:00 | 26.20446 | 141.78565 | 38057 ft | 476 kts | 175° |
| 2026-04-26 10:00 | 26.13875 | 141.79953 | 38084 ft | 479 kts | 175° |
| 2026-04-26 10:01 | 26.07321 | 141.81339 | 38090 ft | 480 kts | 175° |
| 2026-04-26 10:01 | 26.00748 | 141.82725 | 38090 ft | 481 kts | 175° |
| 2026-04-26 10:02 | 25.94219 | 141.84101 | 38079 ft | 481 kts | 174° |
| 2026-04-26 10:02 | 25.87626 | 141.85488 | 38082 ft | 483 kts | 174° |
| 2026-04-26 10:03 | 25.81029 | 141.86876 | 38079 ft | 482 kts | 174° |
| 2026-04-26 10:03 | 25.74451 | 141.88256 | 38072 ft | 481 kts | 174° |
| 2026-04-26 10:04 | 25.67871 | 141.89636 | 38079 ft | 482 kts | 174° |
| 2026-04-26 10:04 | 25.61282 | 141.91017 | 38084 ft | 482 kts | 174° |
| 2026-04-26 10:05 | 25.54684 | 141.92398 | 38082 ft | 482 kts | 174° |
| 2026-04-26 10:05 | 25.48086 | 141.93777 | 38084 ft | 483 kts | 174° |
| 2026-04-26 10:06 | 25.41480 | 141.95157 | 38087 ft | 483 kts | 174° |
| 2026-04-26 10:06 | 25.34878 | 141.96534 | 38089 ft | 483 kts | 174° |
| 2026-04-26 10:07 | 25.28275 | 141.97909 | 38083 ft | 483 kts | 174° |
| 2026-04-26 10:07 | 25.21655 | 141.99287 | 38087 ft | 485 kts | 174° |
| 2026-04-26 10:08 | 25.15020 | 142.00667 | 38095 ft | 485 kts | 174° |
| 2026-04-26 10:08 | 25.09516 | 142.01810 | 38093 ft | 484 kts | 174° |
| 2026-04-26 10:09 | 25.02905 | 142.03181 | 38086 ft | 484 kts | 174° |
| 2026-04-26 10:09 | 24.96303 | 142.04728 | 38098 ft | 485 kts | 172° |
| 2026-04-26 10:10 | 24.89702 | 142.06305 | 38097 ft | 485 kts | 172° |
| 2026-04-26 10:10 | 24.83114 | 142.07933 | 38082 ft | 484 kts | 172° |
| 2026-04-26 10:11 | 24.76522 | 142.09531 | 38084 ft | 486 kts | 172° |
| 2026-04-26 10:11 | 24.69900 | 142.11157 | 38092 ft | 488 kts | 172° |
| 2026-04-26 10:12 | 24.63263 | 142.12776 | 38095 ft | 488 kts | 172° |
| 2026-04-26 10:12 | 24.56629 | 142.14395 | 38082 ft | 489 kts | 172° |
| 2026-04-26 10:13 | 24.49992 | 142.16013 | 38081 ft | 488 kts | 172° |
| 2026-04-26 10:13 | 24.43420 | 142.17612 | 38084 ft | 487 kts | 172° |
| 2026-04-26 10:14 | 24.36815 | 142.19218 | 38065 ft | 486 kts | 172° |
| 2026-04-26 10:14 | 24.30189 | 142.20827 | 38091 ft | 490 kts | 172° |
| 2026-04-26 10:15 | 24.23528 | 142.22445 | 38093 ft | 490 kts | 172° |
| 2026-04-26 10:15 | 24.16865 | 142.24059 | 38098 ft | 490 kts | 172° |
| 2026-04-26 10:16 | 24.10197 | 142.25674 | 38085 ft | 491 kts | 172° |
| 2026-04-26 10:16 | 24.03532 | 142.27286 | 38086 ft | 491 kts | 172° |
| 2026-04-26 10:17 | 23.96863 | 142.28898 | 38090 ft | 491 kts | 172° |
| 2026-04-26 10:17 | 23.90192 | 142.30508 | 38091 ft | 491 kts | 172° |
| 2026-04-26 10:18 | 23.83514 | 142.32118 | 38089 ft | 492 kts | 171° |
| 2026-04-26 10:18 | 23.76836 | 142.33727 | 38088 ft | 491 kts | 171° |
| 2026-04-26 10:19 | 23.70173 | 142.35330 | 38081 ft | 489 kts | 171° |
| 2026-04-26 10:19 | 23.63530 | 142.36926 | 38086 ft | 488 kts | 171° |
| 2026-04-26 10:20 | 23.56876 | 142.38523 | 38086 ft | 491 kts | 171° |
| 2026-04-26 10:20 | 23.50236 | 142.40117 | 38092 ft | 492 kts | 171° |
| 2026-04-26 10:21 | 23.43552 | 142.41719 | 38093 ft | 491 kts | 171° |
| 2026-04-26 10:21 | 23.36880 | 142.43315 | 38077 ft | 491 kts | 171° |
| 2026-04-26 10:22 | 23.30209 | 142.44911 | 38076 ft | 491 kts | 171° |
| 2026-04-26 10:22 | 23.23534 | 142.46505 | 38076 ft | 491 kts | 171° |
| 2026-04-26 10:23 | 23.16860 | 142.48097 | 38074 ft | 491 kts | 171° |
| 2026-04-26 10:23 | 23.10184 | 142.49689 | 38075 ft | 491 kts | 171° |
| 2026-04-26 10:24 | 23.03506 | 142.51279 | 38076 ft | 491 kts | 171° |
| 2026-04-26 10:24 | 22.96829 | 142.52868 | 38076 ft | 491 kts | 171° |
| 2026-04-26 10:25 | 22.90140 | 142.54457 | 38080 ft | 493 kts | 171° |
| 2026-04-26 10:25 | 22.83425 | 142.56051 | 38087 ft | 495 kts | 171° |
| 2026-04-26 10:26 | 22.76711 | 142.57644 | 38084 ft | 493 kts | 171° |
| 2026-04-26 10:26 | 22.70014 | 142.59231 | 38070 ft | 492 kts | 171° |
| 2026-04-26 10:27 | 22.63319 | 142.60815 | 38079 ft | 494 kts | 172° |
| 2026-04-26 10:27 | 22.56600 | 142.62405 | 38090 ft | 495 kts | 172° |
| 2026-04-26 10:28 | 22.49873 | 142.63994 | 38085 ft | 495 kts | 172° |
| 2026-04-26 10:28 | 22.43149 | 142.65580 | 38071 ft | 495 kts | 172° |
| 2026-04-26 10:29 | 22.36455 | 142.67158 | 38078 ft | 497 kts | 172° |
| 2026-04-26 10:29 | 22.29704 | 142.68749 | 38074 ft | 496 kts | 172° |
| 2026-04-26 10:30 | 22.22971 | 142.70333 | 38075 ft | 495 kts | 172° |
| 2026-04-26 10:30 | 22.16248 | 142.71913 | 38074 ft | 495 kts | 172° |
| 2026-04-26 10:31 | 22.09506 | 142.73496 | 38072 ft | 496 kts | 172° |
| 2026-04-26 10:31 | 22.02755 | 142.75080 | 38075 ft | 497 kts | 172° |
| 2026-04-26 10:32 | 21.95998 | 142.76664 | 38064 ft | 497 kts | 172° |
| 2026-04-26 10:32 | 21.89240 | 142.78246 | 38061 ft | 497 kts | 172° |
| 2026-04-26 10:33 | 21.82492 | 142.79825 | 38064 ft | 496 kts | 172° |
| 2026-04-26 10:33 | 21.75758 | 142.81398 | 38063 ft | 495 kts | 172° |
| 2026-04-26 10:34 | 21.69027 | 142.82970 | 38066 ft | 496 kts | 172° |
| 2026-04-26 10:34 | 21.62250 | 142.84550 | 38071 ft | 499 kts | 172° |
| 2026-04-26 10:35 | 21.55461 | 142.86133 | 38075 ft | 499 kts | 172° |
| 2026-04-26 10:35 | 21.48669 | 142.87714 | 38074 ft | 499 kts | 172° |
| 2026-04-26 10:36 | 21.41877 | 142.89293 | 38068 ft | 501 kts | 172° |
| 2026-04-26 10:36 | 21.35060 | 142.90877 | 38064 ft | 501 kts | 172° |
| 2026-04-26 10:37 | 21.28253 | 142.92458 | 38067 ft | 500 kts | 172° |
| 2026-04-26 10:37 | 21.21452 | 142.94035 | 38056 ft | 500 kts | 172° |
| 2026-04-26 10:38 | 21.14649 | 142.95611 | 38059 ft | 501 kts | 172° |
| 2026-04-26 10:38 | 21.07871 | 142.97180 | 38062 ft | 502 kts | 172° |
| 2026-04-26 10:39 | 21.01039 | 142.98760 | 38062 ft | 502 kts | 172° |
| 2026-04-26 10:39 | 20.94196 | 143.00484 | 38052 ft | 502 kts | 171° |
| 2026-04-26 10:40 | 20.87419 | 143.02138 | 38056 ft | 504 kts | 170° |
| 2026-04-26 10:40 | 20.80594 | 143.03879 | 38055 ft | 504 kts | 171° |
| 2026-04-26 10:41 | 20.73776 | 143.05567 | 38050 ft | 502 kts | 171° |
| 2026-04-26 10:41 | 20.66985 | 143.07276 | 38042 ft | 501 kts | 171° |
| 2026-04-26 10:42 | 20.60193 | 143.08967 | 38045 ft | 502 kts | 171° |
| 2026-04-26 10:42 | 20.53377 | 143.10672 | 38051 ft | 504 kts | 171° |
| 2026-04-26 10:43 | 20.46552 | 143.12373 | 38046 ft | 503 kts | 171° |
| 2026-04-26 10:43 | 20.39748 | 143.14069 | 38043 ft | 501 kts | 171° |
| 2026-04-26 10:44 | 20.32958 | 143.15760 | 38040 ft | 501 kts | 171° |
| 2026-04-26 10:44 | 20.26153 | 143.17452 | 38044 ft | 503 kts | 171° |
| 2026-04-26 10:45 | 20.19342 | 143.19145 | 38044 ft | 502 kts | 170° |
| 2026-04-26 10:45 | 20.12521 | 143.20839 | 38041 ft | 504 kts | 170° |
| 2026-04-26 10:46 | 20.05697 | 143.22532 | 38036 ft | 504 kts | 170° |
| 2026-04-26 10:46 | 19.98865 | 143.24225 | 38037 ft | 504 kts | 170° |
| 2026-04-26 10:47 | 19.92039 | 143.25915 | 38035 ft | 504 kts | 170° |
| 2026-04-26 10:47 | 19.85204 | 143.27607 | 38034 ft | 505 kts | 170° |
| 2026-04-26 10:48 | 19.78361 | 143.29298 | 38038 ft | 505 kts | 170° |
| 2026-04-26 10:48 | 19.71511 | 143.30990 | 38035 ft | 506 kts | 170° |
| 2026-04-26 10:49 | 19.64647 | 143.32684 | 38029 ft | 507 kts | 169° |
| 2026-04-26 10:49 | 19.57763 | 143.34381 | 38034 ft | 508 kts | 169° |
| 2026-04-26 10:50 | 19.52047 | 143.35789 | 38035 ft | 507 kts | 169° |
| 2026-04-26 10:50 | 19.44070 | 143.37752 | 38023 ft | 506 kts | 169° |
| 2026-04-26 10:51 | 19.33766 | 143.40286 | 38025 ft | 508 kts | 169° |
| 2026-04-26 10:52 | 19.26877 | 143.41978 | 38028 ft | 509 kts | 169° |
| 2026-04-26 10:52 | 19.19973 | 143.43672 | 38039 ft | 509 kts | 169° |
| 2026-04-26 10:53 | 19.13075 | 143.45363 | 38028 ft | 509 kts | 169° |
| 2026-04-26 10:53 | 19.06167 | 143.47055 | 38030 ft | 510 kts | 169° |
| 2026-04-26 10:54 | 18.95798 | 143.49592 | 38027 ft | 509 kts | 169° |
| 2026-04-26 10:54 | 18.88905 | 143.51277 | 38017 ft | 508 kts | 169° |
| 2026-04-26 10:55 | 18.82027 | 143.52957 | 38017 ft | 507 kts | 169° |
| 2026-04-26 10:55 | 18.76315 | 143.54351 | 38019 ft | 507 kts | 169° |
| 2026-04-26 10:56 | 18.68287 | 143.56308 | 38017 ft | 507 kts | 169° |
| 2026-04-26 10:56 | 18.61410 | 143.57984 | 38012 ft | 508 kts | 168° |
| 2026-04-26 10:57 | 18.54504 | 143.59665 | 38016 ft | 510 kts | 168° |
| 2026-04-26 10:57 | 18.47585 | 143.61347 | 38018 ft | 510 kts | 168° |
| 2026-04-26 10:58 | 18.40727 | 143.63014 | 38014 ft | 509 kts | 168° |
| 2026-04-26 10:58 | 18.33830 | 143.64689 | 38011 ft | 508 kts | 168° |
| 2026-04-26 10:59 | 18.26935 | 143.66361 | 38007 ft | 508 kts | 168° |
| 2026-04-26 10:59 | 18.21205 | 143.67750 | 38007 ft | 508 kts | 168° |
| 2026-04-26 11:00 | 18.14309 | 143.69421 | 38005 ft | 509 kts | 168° |
| 2026-04-26 11:00 | 18.07408 | 143.71091 | 38004 ft | 509 kts | 168° |
| 2026-04-26 11:01 | 18.00499 | 143.72762 | 38009 ft | 510 kts | 168° |
| 2026-04-26 11:01 | 17.93584 | 143.74433 | 38009 ft | 510 kts | 168° |
| 2026-04-26 11:02 | 17.86657 | 143.76104 | 38004 ft | 512 kts | 168° |
| 2026-04-26 11:02 | 17.79711 | 143.77783 | 38005 ft | 511 kts | 168° |
| 2026-04-26 11:03 | 17.72788 | 143.79450 | 38002 ft | 510 kts | 168° |
| 2026-04-26 11:03 | 17.65868 | 143.81118 | 37997 ft | 510 kts | 168° |
| 2026-04-26 11:04 | 17.58938 | 143.82786 | 37999 ft | 512 kts | 168° |
| 2026-04-26 11:04 | 17.51977 | 143.84411 | 38001 ft | 513 kts | 169° |
| 2026-04-26 11:05 | 17.44996 | 143.85927 | 37999 ft | 513 kts | 168° |
| 2026-04-26 11:05 | 17.38029 | 143.87513 | 38000 ft | 512 kts | 169° |
| 2026-04-26 11:06 | 17.31062 | 143.89053 | 38001 ft | 512 kts | 168° |
| 2026-04-26 11:06 | 17.24092 | 143.90618 | 37999 ft | 513 kts | 168° |
| 2026-04-26 11:07 | 17.17114 | 143.92170 | 37998 ft | 512 kts | 168° |
| 2026-04-26 11:07 | 17.10155 | 143.93724 | 37992 ft | 511 kts | 168° |
| 2026-04-26 11:08 | 17.03205 | 143.95270 | 37986 ft | 511 kts | 168° |
| 2026-04-26 11:08 | 16.96234 | 143.96822 | 37990 ft | 513 kts | 168° |
| 2026-04-26 11:09 | 16.89279 | 143.98369 | 37995 ft | 515 kts | 168° |
| 2026-04-26 11:09 | 16.82268 | 143.99927 | 37992 ft | 514 kts | 168° |
| 2026-04-26 11:10 | 16.75279 | 144.01479 | 37985 ft | 513 kts | 168° |
| 2026-04-26 11:10 | 16.68299 | 144.03028 | 37982 ft | 513 kts | 168° |
| 2026-04-26 11:11 | 16.61321 | 144.04575 | 37979 ft | 513 kts | 168° |
| 2026-04-26 11:11 | 16.54346 | 144.06121 | 37978 ft | 513 kts | 168° |
| 2026-04-26 11:12 | 16.47362 | 144.07667 | 37978 ft | 514 kts | 168° |
| 2026-04-26 11:12 | 16.40360 | 144.09216 | 37984 ft | 515 kts | 168° |
| 2026-04-26 11:13 | 16.33347 | 144.10766 | 37987 ft | 515 kts | 168° |
| 2026-04-26 11:13 | 16.26328 | 144.12317 | 37989 ft | 515 kts | 168° |
| 2026-04-26 11:14 | 16.19315 | 144.13865 | 37984 ft | 515 kts | 168° |
| 2026-04-26 11:14 | 16.12307 | 144.15411 | 37983 ft | 514 kts | 168° |
| 2026-04-26 11:15 | 16.05308 | 144.16954 | 37982 ft | 514 kts | 168° |
| 2026-04-26 11:15 | 15.98317 | 144.18493 | 37980 ft | 513 kts | 168° |
| 2026-04-26 11:16 | 15.91334 | 144.20031 | 37977 ft | 512 kts | 168° |
| 2026-04-26 11:16 | 15.84409 | 144.21554 | 37975 ft | 512 kts | 168° |
| 2026-04-26 11:17 | 15.77437 | 144.23086 | 37974 ft | 513 kts | 168° |
| 2026-04-26 11:17 | 15.70453 | 144.24620 | 37978 ft | 513 kts | 168° |
| 2026-04-26 11:18 | 15.63464 | 144.26155 | 37975 ft | 512 kts | 168° |
| 2026-04-26 11:18 | 15.56490 | 144.27684 | 37975 ft | 513 kts | 168° |
| 2026-04-26 11:19 | 15.49511 | 144.29214 | 37979 ft | 512 kts | 168° |
| 2026-04-26 11:19 | 15.42551 | 144.30738 | 37980 ft | 511 kts | 168° |
| 2026-04-26 11:20 | 15.36748 | 144.32009 | 37972 ft | 513 kts | 168° |
| 2026-04-26 11:20 | 15.28582 | 144.33795 | 37976 ft | 512 kts | 168° |
| 2026-04-26 11:21 | 15.21606 | 144.35320 | 37977 ft | 513 kts | 168° |
| 2026-04-26 11:21 | 15.14618 | 144.36846 | 37970 ft | 514 kts | 168° |
| 2026-04-26 11:22 | 15.07596 | 144.38305 | 37987 ft | 515 kts | 171° |
| 2026-04-26 11:22 | 15.00541 | 144.39644 | 37974 ft | 516 kts | 169° |
| 2026-04-26 11:23 | 14.93499 | 144.40948 | 37975 ft | 512 kts | 170° |
| 2026-04-26 11:23 | 14.86479 | 144.42251 | 37962 ft | 513 kts | 169° |
| 2026-04-26 11:24 | 14.79474 | 144.43559 | 37962 ft | 511 kts | 169° |
| 2026-04-26 11:24 | 14.72453 | 144.44857 | 37963 ft | 512 kts | 169° |
| 2026-04-26 11:25 | 14.65417 | 144.46167 | 37964 ft | 515 kts | 169° |
| 2026-04-26 11:25 | 14.58384 | 144.47469 | 37962 ft | 513 kts | 169° |
| 2026-04-26 11:26 | 14.51354 | 144.48774 | 37959 ft | 512 kts | 169° |
| 2026-04-26 11:26 | 14.44359 | 144.50069 | 37955 ft | 510 kts | 169° |
| 2026-04-26 11:27 | 14.37370 | 144.51364 | 37956 ft | 510 kts | 169° |
| 2026-04-26 11:27 | 14.30376 | 144.52657 | 37962 ft | 511 kts | 169° |
| 2026-04-26 11:28 | 14.23416 | 144.53944 | 37959 ft | 512 kts | 169° |
| 2026-04-26 11:28 | 14.16401 | 144.55240 | 37959 ft | 512 kts | 169° |
| 2026-04-26 11:29 | 14.09384 | 144.56536 | 37959 ft | 513 kts | 169° |
| 2026-04-26 11:29 | 14.02352 | 144.57834 | 37957 ft | 514 kts | 169° |
| 2026-04-26 11:30 | 13.96436 | 144.58925 | 37959 ft | 516 kts | 169° |
| 2026-04-26 11:30 | 13.88246 | 144.60434 | 37949 ft | 511 kts | 169° |
| 2026-04-26 11:31 | 13.81253 | 144.61723 | 37952 ft | 510 kts | 169° |
| 2026-04-26 11:31 | 13.74251 | 144.63012 | 37948 ft | 512 kts | 170° |
| 2026-04-26 11:32 | 13.67248 | 144.64301 | 37957 ft | 510 kts | 170° |
| 2026-04-26 11:32 | 13.60270 | 144.65583 | 37959 ft | 509 kts | 170° |
| 2026-04-26 11:33 | 13.53290 | 144.66866 | 37967 ft | 510 kts | 170° |
| 2026-04-26 11:33 | 13.46288 | 144.68155 | 37974 ft | 512 kts | 169° |
| 2026-04-26 11:34 | 13.39294 | 144.69519 | 37969 ft | 511 kts | 169° |
| 2026-04-26 11:34 | 13.32318 | 144.70851 | 37935 ft | 510 kts | 170° |
| 2026-04-26 11:35 | 13.25327 | 144.72196 | 37932 ft | 511 kts | 169° |
| 2026-04-26 11:35 | 13.19516 | 144.73312 | 37932 ft | 512 kts | 169° |
| 2026-04-26 11:36 | 13.11308 | 144.74884 | 37937 ft | 516 kts | 170° |
| 2026-04-26 11:36 | 13.04252 | 144.76237 | 37938 ft | 514 kts | 170° |
| 2026-04-26 11:37 | 12.97234 | 144.77581 | 37941 ft | 512 kts | 171° |
| 2026-04-26 11:37 | 12.90255 | 144.78911 | 37942 ft | 509 kts | 170° |
| 2026-04-26 11:38 | 12.83357 | 144.80243 | 37934 ft | 507 kts | 171° |
| 2026-04-26 11:38 | 12.76424 | 144.81559 | 37930 ft | 507 kts | 170° |
| 2026-04-26 11:39 | 12.69493 | 144.82891 | 37930 ft | 507 kts | 171° |
| 2026-04-26 11:39 | 12.62561 | 144.84210 | 37930 ft | 507 kts | 171° |
| 2026-04-26 11:40 | 12.55617 | 144.85538 | 37931 ft | 508 kts | 171° |
| 2026-04-26 11:40 | 12.48652 | 144.86868 | 37938 ft | 511 kts | 171° |
| 2026-04-26 11:42 | 12.20864 | 144.92161 | 37935 ft | 505 kts | 171° |
| 2026-04-26 11:43 | 12.13952 | 144.93477 | 37937 ft | 506 kts | 171° |
| 2026-04-26 11:43 | 12.07029 | 144.94793 | 37935 ft | 506 kts | 171° |
| 2026-04-26 11:44 | 12.00101 | 144.96111 | 37936 ft | 506 kts | 171° |
| 2026-04-26 11:44 | 11.93195 | 144.97426 | 37926 ft | 505 kts | 172° |
| 2026-04-26 11:45 | 11.86278 | 144.98732 | 37918 ft | 505 kts | 171° |
| 2026-04-26 11:45 | 11.79362 | 145.00015 | 37930 ft | 504 kts | 176° |
| 2026-04-26 11:46 | 11.72404 | 145.00906 | 37929 ft | 504 kts | 174° |
| 2026-04-26 11:46 | 11.65480 | 145.01825 | 37923 ft | 500 kts | 175° |
| 2026-04-26 11:47 | 11.59733 | 145.02563 | 37932 ft | 502 kts | 175° |
| 2026-04-26 11:47 | 11.52788 | 145.03479 | 37937 ft | 503 kts | 175° |
| 2026-04-26 11:48 | 11.45847 | 145.04379 | 37921 ft | 502 kts | 175° |
| 2026-04-26 11:48 | 11.38941 | 145.05281 | 37913 ft | 497 kts | 174° |
| 2026-04-26 11:49 | 11.32106 | 145.06171 | 37915 ft | 495 kts | 175° |
| 2026-04-26 11:49 | 11.25261 | 145.07058 | 37923 ft | 496 kts | 174° |
| 2026-04-26 11:50 | 11.18421 | 145.07955 | 37931 ft | 495 kts | 175° |
| 2026-04-26 11:50 | 11.11577 | 145.08839 | 37929 ft | 495 kts | 174° |
| 2026-04-26 11:51 | 11.04777 | 145.09733 | 37916 ft | 491 kts | 175° |
| 2026-04-26 11:51 | 10.97985 | 145.10603 | 37911 ft | 493 kts | 174° |
| 2026-04-26 11:52 | 10.91225 | 145.11493 | 37914 ft | 493 kts | 175° |
| 2026-04-26 11:52 | 10.84421 | 145.12369 | 37924 ft | 493 kts | 175° |
| 2026-04-26 11:53 | 10.77626 | 145.13255 | 37927 ft | 492 kts | 175° |
| 2026-04-26 11:54 | 10.67432 | 145.14580 | 37907 ft | 493 kts | 175° |
| 2026-04-26 11:54 | 10.60621 | 145.15456 | 37909 ft | 493 kts | 174° |
| 2026-04-26 11:55 | 10.53817 | 145.16341 | 37921 ft | 493 kts | 174° |
| 2026-04-26 11:55 | 10.47002 | 145.17226 | 37915 ft | 495 kts | 174° |
| 2026-04-26 11:56 | 10.40169 | 145.18108 | 37907 ft | 495 kts | 175° |
| 2026-04-26 11:56 | 10.33338 | 145.18992 | 37907 ft | 494 kts | 174° |
| 2026-04-26 11:57 | 10.26563 | 145.19868 | 37916 ft | 494 kts | 174° |
| 2026-04-26 11:57 | 10.19758 | 145.20748 | 37917 ft | 490 kts | 173° |
| 2026-04-26 11:58 | 10.13012 | 145.21620 | 37918 ft | 490 kts | 173° |
| 2026-04-26 11:58 | 10.06246 | 145.22493 | 37920 ft | 490 kts | 173° |
| 2026-04-26 11:59 | 9.99474 | 145.23369 | 37919 ft | 491 kts | 173° |
| 2026-04-26 11:59 | 9.92685 | 145.24244 | 37920 ft | 492 kts | 173° |
| 2026-04-26 12:00 | 9.85942 | 145.25115 | 37909 ft | 486 kts | 173° |
| 2026-04-26 12:00 | 9.79219 | 145.25982 | 37906 ft | 488 kts | 173° |
| 2026-04-26 12:01 | 9.72503 | 145.26848 | 37910 ft | 483 kts | 173° |
| 2026-04-26 12:01 | 9.65860 | 145.27704 | 37903 ft | 483 kts | 173° |
| 2026-04-26 12:02 | 9.59163 | 145.28567 | 37919 ft | 487 kts | 173° |
| 2026-04-26 12:02 | 9.52474 | 145.29428 | 37900 ft | 485 kts | 173° |
| 2026-04-26 12:03 | 9.45754 | 145.30293 | 37911 ft | 487 kts | 173° |
| 2026-04-26 12:03 | 9.39050 | 145.31156 | 37910 ft | 484 kts | 173° |
| 2026-04-26 12:04 | 9.32361 | 145.31793 | 37912 ft | 485 kts | 174° |
| 2026-04-26 12:04 | 9.25683 | 145.32436 | 37913 ft | 480 kts | 175° |
| 2026-04-26 12:05 | 9.19034 | 145.33017 | 37902 ft | 482 kts | 175° |
| 2026-04-26 12:05 | 9.12338 | 145.33637 | 37902 ft | 482 kts | 175° |
| 2026-04-26 12:06 | 9.05613 | 145.34240 | 37902 ft | 488 kts | 175° |
| 2026-04-26 12:06 | 8.98896 | 145.34852 | 37905 ft | 480 kts | 174° |
| 2026-04-26 12:07 | 8.92291 | 145.35450 | 37899 ft | 480 kts | 174° |
| 2026-04-26 12:07 | 8.85648 | 145.36052 | 37898 ft | 481 kts | 174° |
| 2026-04-26 12:08 | 8.78976 | 145.36656 | 37897 ft | 483 kts | 175° |
| 2026-04-26 12:08 | 8.72299 | 145.37260 | 37897 ft | 483 kts | 174° |
| 2026-04-26 12:09 | 8.65559 | 145.37870 | 37898 ft | 487 kts | 174° |
| 2026-04-26 12:09 | 8.58863 | 145.38476 | 37890 ft | 482 kts | 174° |
| 2026-04-26 12:10 | 8.52202 | 145.39078 | 37895 ft | 478 kts | 174° |
| 2026-04-26 12:10 | 8.45534 | 145.39681 | 37997 ft | 484 kts | 174° |
| 2026-04-26 12:11 | 8.38823 | 145.40287 | 37994 ft | 486 kts | 174° |
| 2026-04-26 12:11 | 8.32028 | 145.40902 | 38142 ft | 493 kts | 174° |
| 2026-04-26 12:11 | 8.28633 | 145.41206 | 38604 ft | 487 kts | 174° |
| 2026-04-26 12:12 | 8.25250 | 145.41512 | 38716 ft | 489 kts | 174° |
| 2026-04-26 12:12 | 8.21874 | 145.41818 | 38999 ft | 486 kts | 174° |
| 2026-04-26 12:12 | 8.18522 | 145.42120 | 39313 ft | 482 kts | 174° |
| 2026-04-26 12:12 | 8.16309 | 145.42320 | 39447 ft | 482 kts | 174° |
| 2026-04-26 12:13 | 8.11819 | 145.42725 | 39516 ft | 485 kts | 174° |
| 2026-04-26 12:13 | 8.08458 | 145.43028 | 39725 ft | 484 kts | 173° |
| 2026-04-26 12:13 | 8.05096 | 145.43332 | 39776 ft | 487 kts | 174° |
| 2026-04-26 12:13 | 8.01718 | 145.43636 | 39910 ft | 488 kts | 174° |
| 2026-04-26 12:14 | 7.98332 | 145.43940 | 39897 ft | 488 kts | 173° |
| 2026-04-26 12:14 | 7.91614 | 145.44547 | 39878 ft | 483 kts | 173° |
| 2026-04-26 12:15 | 7.84973 | 145.45145 | 39878 ft | 475 kts | 173° |
| 2026-04-26 12:15 | 7.78386 | 145.45738 | 39878 ft | 476 kts | 173° |
| 2026-04-26 12:16 | 7.71769 | 145.46336 | 39879 ft | 480 kts | 174° |
| 2026-04-26 12:16 | 7.65120 | 145.46932 | 39880 ft | 477 kts | 173° |
| 2026-04-26 12:17 | 7.58562 | 145.47523 | 39878 ft | 475 kts | 173° |
| 2026-04-26 12:17 | 7.51993 | 145.48115 | 39872 ft | 475 kts | 174° |
| 2026-04-26 12:18 | 7.45385 | 145.48709 | 39875 ft | 477 kts | 174° |
| 2026-04-26 12:18 | 7.38758 | 145.49305 | 39881 ft | 478 kts | 174° |
| 2026-04-26 12:19 | 7.32145 | 145.49899 | 39880 ft | 477 kts | 174° |
| 2026-04-26 12:19 | 7.25555 | 145.50491 | 39893 ft | 474 kts | 173° |
| 2026-04-26 12:20 | 7.18964 | 145.51083 | 39883 ft | 477 kts | 173° |
| 2026-04-26 12:20 | 7.12331 | 145.51680 | 39892 ft | 481 kts | 174° |
| 2026-04-26 12:21 | 7.05687 | 145.52275 | 39879 ft | 478 kts | 174° |
| 2026-04-26 12:21 | 6.99062 | 145.52871 | 39878 ft | 478 kts | 173° |
| 2026-04-26 12:22 | 6.92439 | 145.53465 | 39875 ft | 478 kts | 173° |
| 2026-04-26 12:22 | 6.85804 | 145.54060 | 39876 ft | 479 kts | 173° |
| 2026-04-26 12:23 | 6.79153 | 145.54656 | 39883 ft | 480 kts | 173° |
| 2026-04-26 12:23 | 6.72511 | 145.55252 | 39879 ft | 479 kts | 173° |
| 2026-04-26 12:24 | 6.65883 | 145.55846 | 39876 ft | 478 kts | 173° |
| 2026-04-26 12:24 | 6.59250 | 145.56440 | 39875 ft | 479 kts | 173° |
| 2026-04-26 12:25 | 6.49284 | 145.57333 | 39880 ft | 479 kts | 173° |
| 2026-04-26 12:25 | 6.42644 | 145.57927 | 39882 ft | 479 kts | 173° |
| 2026-04-26 12:26 | 6.36053 | 145.58518 | 39881 ft | 479 kts | 173° |
| 2026-04-26 12:26 | 6.29404 | 145.59112 | 39893 ft | 480 kts | 173° |
| 2026-04-26 12:27 | 6.22743 | 145.59709 | 39878 ft | 481 kts | 173° |
| 2026-04-26 12:27 | 6.16088 | 145.60304 | 39880 ft | 480 kts | 173° |
| 2026-04-26 12:28 | 6.09440 | 145.60899 | 39877 ft | 479 kts | 173° |
| 2026-04-26 12:28 | 6.02793 | 145.61493 | 39877 ft | 480 kts | 173° |
| 2026-04-26 12:29 | 5.96144 | 145.62087 | 39878 ft | 480 kts | 173° |
| 2026-04-26 12:30 | 5.86171 | 145.62978 | 39882 ft | 480 kts | 173° |
| 2026-04-26 12:30 | 5.79529 | 145.63572 | 39877 ft | 479 kts | 173° |
| 2026-04-26 12:31 | 5.69558 | 145.64462 | 39882 ft | 479 kts | 173° |
| 2026-04-26 12:31 | 5.62915 | 145.65056 | 39880 ft | 480 kts | 173° |
| 2026-04-26 12:32 | 5.56252 | 145.65651 | 39879 ft | 481 kts | 173° |
| 2026-04-26 12:33 | 5.46246 | 145.66543 | 39878 ft | 481 kts | 173° |
| 2026-04-26 12:33 | 5.39626 | 145.67134 | 39874 ft | 481 kts | 173° |
| 2026-04-26 12:34 | 5.32961 | 145.67729 | 39881 ft | 482 kts | 173° |
| 2026-04-26 12:34 | 5.26261 | 145.68326 | 39875 ft | 484 kts | 173° |
| 2026-04-26 12:35 | 5.19551 | 145.68924 | 39877 ft | 484 kts | 173° |
| 2026-04-26 12:35 | 5.12850 | 145.69521 | 39876 ft | 484 kts | 173° |
| 2026-04-26 12:36 | 5.06144 | 145.70119 | 39880 ft | 484 kts | 173° |
| 2026-04-26 12:36 | 4.99428 | 145.70718 | 39880 ft | 486 kts | 173° |
| 2026-04-26 12:37 | 4.92691 | 145.71305 | 39880 ft | 486 kts | 173° |
| 2026-04-26 12:37 | 4.85959 | 145.71894 | 39879 ft | 485 kts | 173° |
| 2026-04-26 12:38 | 4.79227 | 145.72483 | 39879 ft | 486 kts | 173° |
| 2026-04-26 12:38 | 4.73626 | 145.72971 | 39881 ft | 486 kts | 173° |
| 2026-04-26 12:39 | 4.66881 | 145.73561 | 39878 ft | 487 kts | 173° |
| 2026-04-26 12:39 | 4.60134 | 145.74150 | 39874 ft | 486 kts | 173° |
| 2026-04-26 12:40 | 4.53401 | 145.74738 | 39871 ft | 486 kts | 173° |
| 2026-04-26 12:40 | 4.46667 | 145.75326 | 39873 ft | 486 kts | 173° |
| 2026-04-26 12:41 | 4.39936 | 145.75914 | 39873 ft | 486 kts | 173° |
| 2026-04-26 12:41 | 4.33205 | 145.76501 | 39871 ft | 485 kts | 173° |
| 2026-04-26 12:42 | 4.26482 | 145.77088 | 39870 ft | 485 kts | 173° |
| 2026-04-26 12:42 | 4.19767 | 145.77674 | 39871 ft | 484 kts | 173° |
| 2026-04-26 12:43 | 4.13063 | 145.78259 | 39865 ft | 484 kts | 173° |
| 2026-04-26 12:43 | 4.06350 | 145.78845 | 39870 ft | 486 kts | 173° |
| 2026-04-26 12:44 | 3.99605 | 145.79433 | 39875 ft | 487 kts | 173° |
| 2026-04-26 12:44 | 3.92895 | 145.80018 | 39875 ft | 487 kts | 173° |
| 2026-04-26 12:45 | 3.86137 | 145.80607 | 39875 ft | 488 kts | 173° |
| 2026-04-26 12:45 | 3.79383 | 145.81196 | 39872 ft | 487 kts | 173° |
| 2026-04-26 12:46 | 3.72638 | 145.81783 | 39870 ft | 485 kts | 173° |
| 2026-04-26 12:46 | 3.65924 | 145.82368 | 39871 ft | 484 kts | 173° |
| 2026-04-26 12:47 | 3.59204 | 145.82954 | 39871 ft | 485 kts | 173° |
| 2026-04-26 12:47 | 3.52467 | 145.83541 | 39870 ft | 486 kts | 173° |
| 2026-04-26 12:48 | 3.45719 | 145.84129 | 39879 ft | 487 kts | 173° |
| 2026-04-26 12:48 | 3.38967 | 145.84717 | 39882 ft | 487 kts | 173° |
| 2026-04-26 12:49 | 3.32223 | 145.85304 | 39881 ft | 486 kts | 173° |
| 2026-04-26 12:49 | 3.25484 | 145.85891 | 39882 ft | 486 kts | 173° |
| 2026-04-26 12:50 | 3.18751 | 145.86477 | 39877 ft | 485 kts | 173° |
| 2026-04-26 12:50 | 3.12010 | 145.87064 | 39875 ft | 488 kts | 173° |
| 2026-04-26 12:51 | 3.05229 | 145.87654 | 39878 ft | 490 kts | 173° |
| 2026-04-26 12:51 | 2.98442 | 145.88244 | 39881 ft | 489 kts | 173° |
| 2026-04-26 12:52 | 2.91658 | 145.88835 | 39878 ft | 489 kts | 173° |
| 2026-04-26 12:52 | 2.84873 | 145.89425 | 39878 ft | 489 kts | 173° |
| 2026-04-26 12:53 | 2.78085 | 145.90015 | 39877 ft | 490 kts | 173° |
| 2026-04-26 12:53 | 2.71283 | 145.90607 | 39877 ft | 491 kts | 173° |
| 2026-04-26 12:54 | 2.64473 | 145.91199 | 39875 ft | 491 kts | 173° |
| 2026-04-26 12:54 | 2.57680 | 145.91790 | 39874 ft | 489 kts | 173° |
| 2026-04-26 12:55 | 2.50905 | 145.92379 | 39871 ft | 488 kts | 173° |
| 2026-04-26 12:55 | 2.44193 | 145.92963 | 39866 ft | 487 kts | 173° |
| 2026-04-26 12:56 | 2.37437 | 145.93550 | 39867 ft | 488 kts | 173° |
| 2026-04-26 12:56 | 2.30662 | 145.94139 | 39869 ft | 489 kts | 173° |
| 2026-04-26 12:57 | 2.23870 | 145.94729 | 39874 ft | 490 kts | 173° |
| 2026-04-26 12:57 | 2.17073 | 145.95320 | 39880 ft | 490 kts | 173° |
| 2026-04-26 12:58 | 2.06882 | 145.96205 | 39879 ft | 490 kts | 173° |
| 2026-04-26 12:58 | 2.00093 | 145.96795 | 39879 ft | 490 kts | 173° |
| 2026-04-26 12:59 | 1.93307 | 145.97385 | 39879 ft | 489 kts | 173° |
| 2026-04-26 12:59 | 1.86522 | 145.97974 | 39878 ft | 489 kts | 173° |
| 2026-04-26 13:00 | 1.79740 | 145.98563 | 39877 ft | 489 kts | 173° |
| 2026-04-26 13:00 | 1.72960 | 145.99152 | 39876 ft | 489 kts | 173° |
| 2026-04-26 13:01 | 1.66174 | 145.99742 | 39877 ft | 489 kts | 173° |
| 2026-04-26 13:01 | 1.59392 | 146.00331 | 39878 ft | 489 kts | 173° |
| 2026-04-26 13:02 | 1.52600 | 146.00921 | 39879 ft | 491 kts | 173° |
| 2026-04-26 13:02 | 1.45829 | 146.01509 | 39878 ft | 493 kts | 173° |
| 2026-04-26 13:03 | 1.39008 | 146.02101 | 39880 ft | 491 kts | 173° |
| 2026-04-26 13:03 | 1.32206 | 146.02691 | 39877 ft | 490 kts | 173° |
| 2026-04-26 13:04 | 1.25420 | 146.03281 | 39874 ft | 489 kts | 173° |
| 2026-04-26 13:04 | 1.18642 | 146.03869 | 39875 ft | 489 kts | 173° |
| 2026-04-26 13:05 | 1.11849 | 146.04459 | 39883 ft | 490 kts | 173° |
| 2026-04-26 13:05 | 1.05051 | 146.05049 | 39884 ft | 491 kts | 173° |
| 2026-04-26 13:06 | 0.98249 | 146.05640 | 39885 ft | 491 kts | 173° |
| 2026-04-26 13:06 | 0.91477 | 146.06227 | 39885 ft | 491 kts | 173° |
| 2026-04-26 13:07 | 0.84691 | 146.06816 | 39882 ft | 489 kts | 173° |
| 2026-04-26 13:07 | 0.77920 | 146.07404 | 39879 ft | 488 kts | 173° |
| 2026-04-26 13:08 | 0.71153 | 146.07991 | 39876 ft | 488 kts | 173° |
| 2026-04-26 13:08 | 0.64391 | 146.08578 | 39875 ft | 488 kts | 173° |
| 2026-04-26 13:09 | 0.57622 | 146.09166 | 39876 ft | 488 kts | 173° |
| 2026-04-26 13:09 | 0.50858 | 146.09753 | 39876 ft | 488 kts | 173° |
| 2026-04-26 13:10 | 0.44093 | 146.10340 | 39876 ft | 488 kts | 173° |
| 2026-04-26 13:10 | 0.37329 | 146.10927 | 39878 ft | 488 kts | 173° |
| 2026-04-26 13:11 | 0.30563 | 146.11514 | 39880 ft | 488 kts | 173° |
| 2026-04-26 13:11 | 0.23798 | 146.12101 | 39879 ft | 488 kts | 173° |
| 2026-04-26 13:12 | 0.17032 | 146.12688 | 39882 ft | 488 kts | 173° |
| 2026-04-26 13:12 | 0.10265 | 146.13275 | 39882 ft | 488 kts | 173° |
| 2026-04-26 13:13 | 0.03500 | 146.13862 | 39883 ft | 488 kts | 173° |
| 2026-04-26 13:13 | -0.03269 | 146.14448 | 39883 ft | 488 kts | 173° |
| 2026-04-26 13:14 | -0.10046 | 146.15030 | 39882 ft | 489 kts | 173° |
| 2026-04-26 13:14 | -0.16832 | 146.15614 | 39888 ft | 490 kts | 173° |
| 2026-04-26 13:15 | -0.23580 | 146.16193 | 39889 ft | 490 kts | 173° |
| 2026-04-26 13:15 | -0.29278 | 146.16684 | 39891 ft | 491 kts | 173° |
| 2026-04-26 13:16 | -0.37196 | 146.17364 | 39889 ft | 492 kts | 173° |
| 2026-04-26 13:16 | -0.44013 | 146.17951 | 39888 ft | 491 kts | 173° |
| 2026-04-26 13:17 | -0.54204 | 146.18827 | 39883 ft | 489 kts | 173° |
| 2026-04-26 13:18 | -0.64354 | 146.19700 | 39879 ft | 488 kts | 173° |
| 2026-04-26 13:19 | -0.74611 | 146.20582 | 39884 ft | 495 kts | 173° |
| 2026-04-26 13:19 | -0.81467 | 146.21172 | 39884 ft | 494 kts | 173° |
| 2026-04-26 13:20 | -0.88310 | 146.21760 | 39887 ft | 493 kts | 173° |
| 2026-04-26 13:20 | -0.95137 | 146.22347 | 39884 ft | 492 kts | 173° |
| 2026-04-26 13:21 | -1.01984 | 146.22937 | 39881 ft | 496 kts | 173° |
| 2026-04-26 13:21 | -1.08869 | 146.23528 | 39887 ft | 497 kts | 173° |
| 2026-04-26 13:22 | -1.15763 | 146.24122 | 39888 ft | 497 kts | 173° |
| 2026-04-26 13:22 | -1.22654 | 146.24714 | 39887 ft | 497 kts | 173° |
| 2026-04-26 13:23 | -1.29542 | 146.25307 | 39885 ft | 496 kts | 173° |
| 2026-04-26 13:23 | -1.36415 | 146.25898 | 39885 ft | 495 kts | 173° |
| 2026-04-26 13:24 | -1.43275 | 146.26488 | 39880 ft | 494 kts | 173° |
| 2026-04-26 13:24 | -1.50121 | 146.27077 | 39875 ft | 493 kts | 173° |
| 2026-04-26 13:25 | -1.56915 | 146.27662 | 39874 ft | 494 kts | 173° |
| 2026-04-26 13:25 | -1.63775 | 146.28253 | 39879 ft | 496 kts | 173° |
| 2026-04-26 13:26 | -1.70666 | 146.28846 | 39886 ft | 498 kts | 173° |
| 2026-04-26 13:26 | -1.77570 | 146.29440 | 39885 ft | 497 kts | 173° |
| 2026-04-26 13:27 | -1.84451 | 146.30032 | 39878 ft | 495 kts | 173° |
| 2026-04-26 13:27 | -1.91311 | 146.30623 | 39876 ft | 494 kts | 173° |
| 2026-04-26 13:28 | -1.98136 | 146.31210 | 39878 ft | 491 kts | 173° |
| 2026-04-26 13:28 | -2.04960 | 146.31798 | 39877 ft | 493 kts | 173° |
| 2026-04-26 13:29 | -2.11799 | 146.32386 | 39876 ft | 494 kts | 173° |
| 2026-04-26 13:29 | -2.17490 | 146.32877 | 39880 ft | 494 kts | 173° |
| 2026-04-26 13:30 | -2.24342 | 146.33466 | 39889 ft | 494 kts | 173° |
| 2026-04-26 13:30 | -2.31198 | 146.34057 | 39889 ft | 494 kts | 173° |
| 2026-04-26 13:31 | -2.38048 | 146.34647 | 39883 ft | 494 kts | 173° |
| 2026-04-26 13:31 | -2.44895 | 146.35237 | 39883 ft | 494 kts | 173° |
| 2026-04-26 13:32 | -2.51734 | 146.35826 | 39879 ft | 493 kts | 173° |
| 2026-04-26 13:32 | -2.58574 | 146.36416 | 39878 ft | 494 kts | 173° |
| 2026-04-26 13:33 | -2.65438 | 146.37007 | 39882 ft | 496 kts | 173° |
| 2026-04-26 13:33 | -2.72320 | 146.37600 | 39884 ft | 496 kts | 173° |
| 2026-04-26 13:34 | -2.79183 | 146.38191 | 39884 ft | 495 kts | 173° |
| 2026-04-26 13:34 | -2.86035 | 146.38782 | 39880 ft | 494 kts | 173° |
| 2026-04-26 13:35 | -2.92873 | 146.39372 | 39876 ft | 493 kts | 173° |
| 2026-04-26 13:35 | -2.99702 | 146.39960 | 39872 ft | 492 kts | 173° |
| 2026-04-26 13:36 | -3.06532 | 146.40549 | 39872 ft | 493 kts | 173° |
| 2026-04-26 13:36 | -3.13336 | 146.41136 | 39882 ft | 495 kts | 173° |
| 2026-04-26 13:37 | -3.20208 | 146.41729 | 39881 ft | 496 kts | 173° |
| 2026-04-26 13:37 | -3.27102 | 146.42324 | 39882 ft | 498 kts | 173° |
| 2026-04-26 13:38 | -3.33994 | 146.42918 | 39885 ft | 496 kts | 173° |
| 2026-04-26 13:38 | -3.40864 | 146.43511 | 39878 ft | 495 kts | 173° |
| 2026-04-26 13:39 | -3.47719 | 146.44102 | 39874 ft | 494 kts | 173° |
| 2026-04-26 13:39 | -3.54564 | 146.44693 | 39867 ft | 495 kts | 173° |
| 2026-04-26 13:40 | -3.61442 | 146.45287 | 39876 ft | 497 kts | 173° |
| 2026-04-26 13:40 | -3.68350 | 146.45883 | 39882 ft | 498 kts | 173° |
| 2026-04-26 13:41 | -3.75245 | 146.46479 | 39881 ft | 497 kts | 173° |
| 2026-04-26 13:41 | -3.82128 | 146.47073 | 39881 ft | 496 kts | 173° |
| 2026-04-26 13:42 | -3.89003 | 146.47667 | 39884 ft | 496 kts | 173° |
| 2026-04-26 13:42 | -3.95867 | 146.48260 | 39879 ft | 496 kts | 173° |
| 2026-04-26 13:43 | -4.02743 | 146.48854 | 39877 ft | 496 kts | 173° |
| 2026-04-26 13:43 | -4.09454 | 146.49434 | 39877 ft | 496 kts | 173° |
| 2026-04-26 13:44 | -4.16441 | 146.50038 | 39875 ft | 496 kts | 174° |
| 2026-04-26 13:44 | -4.23292 | 146.50630 | 39873 ft | 495 kts | 174° |
| 2026-04-26 13:45 | -4.30154 | 146.51224 | 39869 ft | 495 kts | 174° |
| 2026-04-26 13:45 | -4.37013 | 146.51817 | 39872 ft | 495 kts | 174° |
| 2026-04-26 13:46 | -4.43870 | 146.52410 | 39867 ft | 494 kts | 174° |
| 2026-04-26 13:46 | -4.50712 | 146.53002 | 39870 ft | 493 kts | 174° |
| 2026-04-26 13:47 | -4.55411 | 146.53409 | 39871 ft | 494 kts | 174° |
| 2026-04-26 13:48 | -4.62278 | 146.54003 | 39876 ft | 496 kts | 174° |
| 2026-04-26 13:48 | -4.69167 | 146.54599 | 39884 ft | 498 kts | 174° |
| 2026-04-26 13:49 | -4.76057 | 146.55196 | 39885 ft | 496 kts | 174° |
| 2026-04-26 13:49 | -4.82919 | 146.55790 | 39880 ft | 494 kts | 174° |
| 2026-04-26 13:50 | -4.89757 | 146.56382 | 39875 ft | 493 kts | 174° |
| 2026-04-26 13:50 | -4.96589 | 146.56974 | 39875 ft | 493 kts | 174° |
| 2026-04-26 13:51 | -5.03422 | 146.57566 | 39875 ft | 493 kts | 174° |
| 2026-04-26 13:51 | -5.10260 | 146.58159 | 39877 ft | 494 kts | 174° |
| 2026-04-26 13:52 | -5.17130 | 146.58754 | 39886 ft | 497 kts | 174° |
| 2026-04-26 13:52 | -5.23975 | 146.59348 | 39890 ft | 497 kts | 174° |
| 2026-04-26 13:53 | -5.30868 | 146.59946 | 39891 ft | 497 kts | 174° |
| 2026-04-26 13:53 | -5.37765 | 146.60544 | 39896 ft | 497 kts | 174° |
| 2026-04-26 13:54 | -5.44662 | 146.61142 | 39896 ft | 499 kts | 174° |
| 2026-04-26 13:54 | -5.51585 | 146.61743 | 39920 ft | 499 kts | 174° |
| 2026-04-26 13:55 | -5.60790 | 146.62542 | 39942 ft | 498 kts | 174° |
| 2026-04-26 13:56 | -5.72301 | 146.63542 | 39929 ft | 497 kts | 174° |
| 2026-04-26 13:56 | -5.79195 | 146.64140 | 39958 ft | 498 kts | 174° |
| 2026-04-26 13:57 | -5.86096 | 146.64740 | 39991 ft | 498 kts | 174° |
| 2026-04-26 13:57 | -5.91835 | 146.65239 | 39994 ft | 498 kts | 174° |
| 2026-04-26 13:58 | -5.98738 | 146.65839 | 40012 ft | 498 kts | 174° |
| 2026-04-26 13:58 | -6.05644 | 146.66439 | 40011 ft | 498 kts | 175° |
| 2026-04-26 13:59 | -6.12546 | 146.67040 | 40003 ft | 498 kts | 174° |
| 2026-04-26 13:59 | -6.19451 | 146.67640 | 40003 ft | 498 kts | 174° |
| 2026-04-26 14:00 | -6.33264 | 146.68842 | 40006 ft | 499 kts | 174° |
| 2026-04-26 14:01 | -6.40179 | 146.69445 | 39987 ft | 500 kts | 175° |
| 2026-04-26 14:01 | -6.47111 | 146.70048 | 39986 ft | 500 kts | 175° |
| 2026-04-26 14:02 | -6.54038 | 146.70652 | 39962 ft | 500 kts | 175° |
| 2026-04-26 14:02 | -6.60909 | 146.71598 | 39959 ft | 498 kts | 169° |
| 2026-04-26 14:03 | -6.67744 | 146.72802 | 39953 ft | 499 kts | 170° |
| 2026-04-26 14:03 | -6.74600 | 146.73990 | 39950 ft | 501 kts | 170° |
| 2026-04-26 14:04 | -6.81426 | 146.75185 | 39944 ft | 501 kts | 170° |
| 2026-04-26 14:04 | -6.88284 | 146.76379 | 39955 ft | 499 kts | 170° |
| 2026-04-26 14:05 | -6.95129 | 146.77575 | 39955 ft | 499 kts | 170° |
| 2026-04-26 14:05 | -7.01969 | 146.78768 | 39964 ft | 499 kts | 169° |
| 2026-04-26 14:06 | -7.08810 | 146.79964 | 39964 ft | 499 kts | 169° |
| 2026-04-26 14:06 | -7.15658 | 146.81160 | 39986 ft | 499 kts | 169° |
| 2026-04-26 14:07 | -7.22515 | 146.82358 | 39981 ft | 501 kts | 169° |
| 2026-04-26 14:07 | -7.29380 | 146.83558 | 39999 ft | 501 kts | 169° |
| 2026-04-26 14:08 | -7.36257 | 146.84760 | 39989 ft | 504 kts | 169° |
| 2026-04-26 14:08 | -7.43179 | 146.85971 | 40001 ft | 505 kts | 169° |
| 2026-04-26 14:09 | -7.50090 | 146.87180 | 39997 ft | 504 kts | 169° |
| 2026-04-26 14:09 | -7.57000 | 146.88390 | 40002 ft | 504 kts | 169° |
| 2026-04-26 14:10 | -7.63911 | 146.89600 | 40018 ft | 504 kts | 170° |
| 2026-04-26 14:10 | -7.70844 | 146.90814 | 40017 ft | 507 kts | 170° |
| 2026-04-26 14:11 | -7.81268 | 146.92640 | 40022 ft | 507 kts | 170° |
| 2026-04-26 14:11 | -7.88162 | 146.93849 | 40023 ft | 506 kts | 170° |
| 2026-04-26 14:12 | -7.95104 | 146.95066 | 40033 ft | 506 kts | 170° |
| 2026-04-26 14:12 | -8.02063 | 146.96287 | 40028 ft | 508 kts | 170° |
| 2026-04-26 14:13 | -8.12508 | 146.98120 | 40033 ft | 508 kts | 170° |
| 2026-04-26 14:14 | -8.19460 | 146.99339 | 40030 ft | 507 kts | 170° |
| 2026-04-26 14:14 | -8.26411 | 147.00561 | 40026 ft | 507 kts | 170° |
| 2026-04-26 14:15 | -8.33368 | 147.01782 | 40016 ft | 508 kts | 171° |
| 2026-04-26 14:15 | -8.40333 | 147.03007 | 40004 ft | 508 kts | 171° |
| 2026-04-26 14:16 | -8.47303 | 147.04232 | 39998 ft | 508 kts | 171° |
| 2026-04-26 14:16 | -8.54267 | 147.05457 | 39980 ft | 508 kts | 171° |
| 2026-04-26 14:17 | -8.61238 | 147.06683 | 39992 ft | 509 kts | 171° |
| 2026-04-26 14:17 | -8.68220 | 147.07912 | 39975 ft | 510 kts | 171° |
| 2026-04-26 14:18 | -8.75207 | 147.09142 | 39981 ft | 509 kts | 171° |
| 2026-04-26 14:18 | -8.82182 | 147.10371 | 39958 ft | 509 kts | 171° |
| 2026-04-26 14:19 | -8.89160 | 147.11600 | 39948 ft | 509 kts | 171° |
| 2026-04-26 14:19 | -8.96142 | 147.12832 | 39935 ft | 510 kts | 171° |
| 2026-04-26 14:20 | -9.03139 | 147.14065 | 39945 ft | 511 kts | 171° |
| 2026-04-26 14:20 | -9.10143 | 147.15301 | 39926 ft | 510 kts | 171° |
| 2026-04-26 14:21 | -9.17137 | 147.16535 | 39926 ft | 510 kts | 171° |
| 2026-04-26 14:21 | -9.24132 | 147.17770 | 39924 ft | 510 kts | 171° |
| 2026-04-26 14:22 | -9.31122 | 147.19005 | 39916 ft | 510 kts | 171° |
| 2026-04-26 14:22 | -9.38115 | 147.20240 | 39922 ft | 510 kts | 171° |
| 2026-04-26 14:23 | -9.45105 | 147.21475 | 39917 ft | 510 kts | 172° |
| 2026-04-26 14:23 | -9.52124 | 147.22533 | 39912 ft | 511 kts | 171° |
| 2026-04-26 14:24 | -9.59105 | 147.23631 | 39913 ft | 512 kts | 173° |
| 2026-04-26 14:24 | -9.66150 | 147.24681 | 39920 ft | 512 kts | 172° |
| 2026-04-26 14:25 | -9.73186 | 147.25772 | 39920 ft | 511 kts | 172° |
| 2026-04-26 14:25 | -9.80214 | 147.26835 | 39910 ft | 510 kts | 172° |
| 2026-04-26 14:26 | -9.87230 | 147.27914 | 39931 ft | 510 kts | 172° |
| 2026-04-26 14:26 | -9.94258 | 147.28984 | 39930 ft | 512 kts | 172° |
| 2026-04-26 14:27 | -10.01322 | 147.30067 | 39918 ft | 514 kts | 172° |
| 2026-04-26 14:27 | -10.08391 | 147.31147 | 39922 ft | 513 kts | 172° |
| 2026-04-26 14:28 | -10.15451 | 147.32228 | 39925 ft | 513 kts | 172° |
| 2026-04-26 14:28 | -10.22500 | 147.33308 | 39921 ft | 511 kts | 172° |
| 2026-04-26 14:29 | -10.29520 | 147.34383 | 39907 ft | 510 kts | 172° |
| 2026-04-26 14:29 | -10.36542 | 147.35460 | 39908 ft | 510 kts | 172° |
| 2026-04-26 14:30 | -10.43570 | 147.36537 | 39908 ft | 511 kts | 172° |
| 2026-04-26 14:30 | -10.50612 | 147.37618 | 39919 ft | 511 kts | 173° |
| 2026-04-26 14:31 | -10.57648 | 147.38698 | 39920 ft | 513 kts | 173° |
| 2026-04-26 14:31 | -10.64734 | 147.39786 | 39921 ft | 516 kts | 173° |
| 2026-04-26 14:32 | -10.71832 | 147.40877 | 39927 ft | 516 kts | 173° |
| 2026-04-26 14:32 | -10.78924 | 147.41967 | 39924 ft | 514 kts | 173° |
| 2026-04-26 14:33 | -10.85979 | 147.43052 | 39928 ft | 512 kts | 173° |
| 2026-04-26 14:33 | -10.92976 | 147.44128 | 39923 ft | 512 kts | 173° |
| 2026-04-26 14:34 | -11.00021 | 147.45213 | 39925 ft | 513 kts | 173° |
| 2026-04-26 14:34 | -11.07081 | 147.46300 | 39933 ft | 514 kts | 173° |
| 2026-04-26 14:35 | -11.14151 | 147.47390 | 39936 ft | 514 kts | 173° |
| 2026-04-26 14:35 | -11.21228 | 147.48480 | 39934 ft | 514 kts | 173° |
| 2026-04-26 14:36 | -11.28295 | 147.49570 | 39934 ft | 513 kts | 173° |
| 2026-04-26 14:36 | -11.35356 | 147.50660 | 39932 ft | 513 kts | 173° |
| 2026-04-26 14:37 | -11.42415 | 147.51750 | 39935 ft | 513 kts | 173° |
| 2026-04-26 14:37 | -11.49475 | 147.52841 | 39938 ft | 513 kts | 174° |
| 2026-04-26 14:38 | -11.56524 | 147.53930 | 39933 ft | 512 kts | 174° |
| 2026-04-26 14:38 | -11.63561 | 147.55018 | 39931 ft | 511 kts | 174° |
| 2026-04-26 14:39 | -11.70610 | 147.56108 | 39933 ft | 513 kts | 174° |
| 2026-04-26 14:39 | -11.77681 | 147.57203 | 39936 ft | 515 kts | 174° |
| 2026-04-26 14:40 | -11.84746 | 147.58297 | 39939 ft | 512 kts | 174° |
| 2026-04-26 14:40 | -11.91781 | 147.59387 | 39935 ft | 511 kts | 174° |
| 2026-04-26 14:41 | -11.98820 | 147.60478 | 39938 ft | 512 kts | 174° |
| 2026-04-26 14:41 | -12.05874 | 147.61573 | 39940 ft | 513 kts | 174° |
| 2026-04-26 14:42 | -12.12885 | 147.62663 | 39941 ft | 512 kts | 174° |
| 2026-04-26 14:42 | -12.19918 | 147.63756 | 39938 ft | 510 kts | 174° |
| 2026-04-26 14:43 | -12.26930 | 147.64846 | 39940 ft | 510 kts | 174° |
| 2026-04-26 14:43 | -12.33961 | 147.65940 | 39947 ft | 512 kts | 174° |
| 2026-04-26 14:44 | -12.41024 | 147.67040 | 39952 ft | 514 kts | 174° |
| 2026-04-26 14:44 | -12.48090 | 147.68141 | 39951 ft | 514 kts | 174° |
| 2026-04-26 14:45 | -12.55157 | 147.69242 | 39945 ft | 514 kts | 174° |
| 2026-04-26 14:45 | -12.62221 | 147.70344 | 39946 ft | 513 kts | 174° |
| 2026-04-26 14:46 | -12.69281 | 147.71446 | 39949 ft | 513 kts | 174° |
| 2026-04-26 14:46 | -12.76329 | 147.72546 | 39944 ft | 511 kts | 175° |
| 2026-04-26 14:47 | -12.82167 | 147.73458 | 39939 ft | 510 kts | 175° |
| 2026-04-26 14:47 | -12.89185 | 147.74555 | 39939 ft | 510 kts | 175° |
| 2026-04-26 14:48 | -12.96201 | 147.75652 | 39938 ft | 510 kts | 175° |
| 2026-04-26 14:48 | -13.03218 | 147.76751 | 39942 ft | 510 kts | 175° |
| 2026-04-26 14:49 | -13.10209 | 147.77845 | 39946 ft | 507 kts | 175° |
| 2026-04-26 14:49 | -13.17186 | 147.78937 | 39947 ft | 507 kts | 175° |
| 2026-04-26 14:50 | -13.24164 | 147.80032 | 39947 ft | 507 kts | 175° |
| 2026-04-26 14:50 | -13.31144 | 147.81126 | 39948 ft | 507 kts | 175° |
| 2026-04-26 14:51 | -13.38123 | 147.82222 | 39953 ft | 507 kts | 176° |
| 2026-04-26 14:51 | -13.45083 | 147.83314 | 39951 ft | 505 kts | 176° |
| 2026-04-26 14:52 | -13.52034 | 147.84406 | 39951 ft | 506 kts | 176° |
| 2026-04-26 14:52 | -13.59009 | 147.85502 | 39952 ft | 508 kts | 176° |
| 2026-04-26 14:53 | -13.66005 | 147.86603 | 39953 ft | 510 kts | 176° |
| 2026-04-26 14:53 | -13.73027 | 147.87708 | 39955 ft | 511 kts | 176° |
| 2026-04-26 14:54 | -13.80058 | 147.88816 | 39952 ft | 511 kts | 176° |
| 2026-04-26 14:54 | -13.87039 | 147.89916 | 39953 ft | 511 kts | 176° |
| 2026-04-26 14:55 | -13.94072 | 147.91025 | 39954 ft | 511 kts | 176° |
| 2026-04-26 14:55 | -14.01106 | 147.92134 | 39949 ft | 512 kts | 176° |
| 2026-04-26 14:56 | -14.08146 | 147.93246 | 39952 ft | 511 kts | 176° |
| 2026-04-26 14:56 | -14.15170 | 147.94356 | 39948 ft | 510 kts | 176° |
| 2026-04-26 14:57 | -14.22183 | 147.95464 | 39944 ft | 509 kts | 176° |
| 2026-04-26 14:57 | -14.29181 | 147.96572 | 39949 ft | 509 kts | 177° |
| 2026-04-26 14:58 | -14.36216 | 147.97683 | 39958 ft | 513 kts | 177° |
| 2026-04-26 14:58 | -14.43276 | 147.98803 | 39959 ft | 514 kts | 177° |
| 2026-04-26 14:59 | -14.50340 | 147.99921 | 39955 ft | 514 kts | 177° |
| 2026-04-26 14:59 | -14.57400 | 148.01042 | 39957 ft | 513 kts | 177° |
| 2026-04-26 15:00 | -14.64460 | 148.02161 | 39959 ft | 513 kts | 178° |
| 2026-04-26 15:00 | -14.71477 | 148.03276 | 39959 ft | 514 kts | 178° |
| 2026-04-26 15:01 | -14.78552 | 148.04400 | 39962 ft | 514 kts | 178° |
| 2026-04-26 15:01 | -14.85624 | 148.05525 | 39963 ft | 514 kts | 178° |
| 2026-04-26 15:02 | -14.92682 | 148.06647 | 39950 ft | 514 kts | 178° |
| 2026-04-26 15:02 | -14.99746 | 148.07771 | 39946 ft | 513 kts | 178° |
| 2026-04-26 15:03 | -15.06807 | 148.08897 | 39949 ft | 513 kts | 178° |
| 2026-04-26 15:03 | -15.13867 | 148.10022 | 39956 ft | 513 kts | 178° |
| 2026-04-26 15:04 | -15.20928 | 148.11149 | 39977 ft | 513 kts | 178° |
| 2026-04-26 15:04 | -15.27970 | 148.12273 | 39959 ft | 510 kts | 178° |
| 2026-04-26 15:05 | -15.34990 | 148.13393 | 39960 ft | 510 kts | 178° |
| 2026-04-26 15:05 | -15.42011 | 148.14516 | 39959 ft | 511 kts | 178° |
| 2026-04-26 15:06 | -15.49039 | 148.15640 | 39964 ft | 511 kts | 178° |
| 2026-04-26 15:06 | -15.56068 | 148.16765 | 39968 ft | 511 kts | 178° |
| 2026-04-26 15:07 | -15.66571 | 148.18448 | 39972 ft | 511 kts | 178° |
| 2026-04-26 15:07 | -15.73605 | 148.19577 | 39968 ft | 512 kts | 178° |
| 2026-04-26 15:08 | -15.80646 | 148.20707 | 39969 ft | 513 kts | 178° |
| 2026-04-26 15:08 | -15.87694 | 148.21841 | 39969 ft | 511 kts | 179° |
| 2026-04-26 15:09 | -15.94711 | 148.22969 | 39964 ft | 510 kts | 179° |
| 2026-04-26 15:09 | -16.01721 | 148.24097 | 39961 ft | 510 kts | 179° |
| 2026-04-26 15:10 | -16.07551 | 148.25036 | 39966 ft | 510 kts | 179° |
| 2026-04-26 15:10 | -16.15750 | 148.26358 | 39967 ft | 510 kts | 179° |
| 2026-04-26 15:11 | -16.22764 | 148.27489 | 39966 ft | 510 kts | 179° |
| 2026-04-26 15:11 | -16.29766 | 148.28619 | 39967 ft | 509 kts | 179° |
| 2026-04-26 15:12 | -16.36761 | 148.29749 | 39964 ft | 509 kts | 179° |
| 2026-04-26 15:12 | -16.43772 | 148.30882 | 39996 ft | 511 kts | 179° |
| 2026-04-26 15:13 | -16.50813 | 148.32021 | 39970 ft | 513 kts | 179° |
| 2026-04-26 15:13 | -16.57866 | 148.33163 | 39974 ft | 513 kts | 179° |
| 2026-04-26 15:14 | -16.64921 | 148.34306 | 39974 ft | 513 kts | 179° |
| 2026-04-26 15:14 | -16.71978 | 148.35451 | 39974 ft | 513 kts | 179° |
| 2026-04-26 15:15 | -16.79039 | 148.36596 | 39973 ft | 514 kts | 180° |
| 2026-04-26 15:15 | -16.86038 | 148.37734 | 39972 ft | 512 kts | 180° |
| 2026-04-26 15:16 | -16.93063 | 148.38874 | 39967 ft | 510 kts | 180° |
| 2026-04-26 15:16 | -17.00082 | 148.40015 | 39964 ft | 511 kts | 180° |
| 2026-04-26 15:17 | -17.05983 | 148.40976 | 39991 ft | 513 kts | 180° |
| 2026-04-26 15:17 | -17.14171 | 148.42310 | 39974 ft | 511 kts | 180° |
| 2026-04-26 15:18 | -17.21184 | 148.43453 | 39971 ft | 509 kts | 180° |
| 2026-04-26 15:18 | -17.28196 | 148.44595 | 39971 ft | 511 kts | 180° |
| 2026-04-26 15:19 | -17.35224 | 148.45743 | 39974 ft | 512 kts | 180° |
| 2026-04-26 15:19 | -17.42258 | 148.46894 | 39978 ft | 510 kts | 181° |
| 2026-04-26 15:20 | -17.49263 | 148.48037 | 39971 ft | 510 kts | 181° |
| 2026-04-26 15:20 | -17.56301 | 148.49188 | 39978 ft | 513 kts | 180° |
| 2026-04-26 15:21 | -17.63358 | 148.50346 | 39977 ft | 513 kts | 180° |
| 2026-04-26 15:21 | -17.70419 | 148.51502 | 39970 ft | 513 kts | 181° |
| 2026-04-26 15:22 | -17.77447 | 148.52656 | 39969 ft | 510 kts | 181° |
| 2026-04-26 15:22 | -17.84463 | 148.53806 | 39968 ft | 510 kts | 181° |
| 2026-04-26 15:23 | -17.91479 | 148.54959 | 39967 ft | 510 kts | 181° |
| 2026-04-26 15:23 | -17.98451 | 148.56105 | 39982 ft | 511 kts | 182° |
| 2026-04-26 15:24 | -18.05472 | 148.57261 | 39982 ft | 510 kts | 182° |
| 2026-04-26 15:24 | -18.12471 | 148.58413 | 39979 ft | 509 kts | 182° |
| 2026-04-26 15:25 | -18.18337 | 148.59378 | 39983 ft | 510 kts | 182° |
| 2026-04-26 15:25 | -18.26497 | 148.60725 | 39988 ft | 511 kts | 182° |
| 2026-04-26 15:26 | -18.33535 | 148.61888 | 39984 ft | 511 kts | 182° |
| 2026-04-26 15:26 | -18.40544 | 148.63046 | 39988 ft | 509 kts | 182° |
| 2026-04-26 15:27 | -18.47543 | 148.64202 | 39985 ft | 509 kts | 182° |
| 2026-04-26 15:27 | -18.54544 | 148.65361 | 39987 ft | 509 kts | 182° |
| 2026-04-26 15:28 | -18.61547 | 148.66521 | 39987 ft | 510 kts | 182° |
| 2026-04-26 15:28 | -18.68553 | 148.67682 | 39984 ft | 510 kts | 182° |
| 2026-04-26 15:29 | -18.75555 | 148.68843 | 39985 ft | 510 kts | 182° |
| 2026-04-26 15:30 | -18.89582 | 148.71173 | 39990 ft | 510 kts | 182° |
| 2026-04-26 15:30 | -18.96580 | 148.72339 | 39988 ft | 508 kts | 182° |
| 2026-04-26 15:31 | -19.07059 | 148.74081 | 39991 ft | 509 kts | 182° |
| 2026-04-26 15:32 | -19.15199 | 148.75439 | 39994 ft | 510 kts | 182° |
| 2026-04-26 15:32 | -19.24595 | 148.77008 | 39993 ft | 510 kts | 182° |
| 2026-04-26 15:33 | -19.31589 | 148.78175 | 39990 ft | 508 kts | 183° |
| 2026-04-26 15:33 | -19.38568 | 148.79341 | 39988 ft | 508 kts | 183° |
| 2026-04-26 15:34 | -19.45518 | 148.80504 | 39991 ft | 510 kts | 183° |
| 2026-04-26 15:34 | -19.52531 | 148.81679 | 40000 ft | 509 kts | 182° |
| 2026-04-26 15:35 | -19.59516 | 148.82851 | 39997 ft | 508 kts | 182° |
| 2026-04-26 15:35 | -19.66484 | 148.84018 | 39995 ft | 506 kts | 182° |
| 2026-04-26 15:36 | -19.73451 | 148.85188 | 39996 ft | 507 kts | 182° |
| 2026-04-26 15:36 | -19.80429 | 148.86360 | 39996 ft | 507 kts | 182° |
| 2026-04-26 15:37 | -19.87376 | 148.87532 | 40001 ft | 505 kts | 182° |
| 2026-04-26 15:37 | -19.94323 | 148.88697 | 40003 ft | 506 kts | 182° |
| 2026-04-26 15:38 | -20.00107 | 148.89674 | 40007 ft | 507 kts | 182° |
| 2026-04-26 15:38 | -20.07073 | 148.90848 | 40014 ft | 506 kts | 182° |
| 2026-04-26 15:39 | -20.14006 | 148.92022 | 40017 ft | 501 kts | 181° |
| 2026-04-26 15:39 | -20.19720 | 148.92984 | 40018 ft | 500 kts | 181° |
| 2026-04-26 15:40 | -20.27774 | 148.94345 | 40027 ft | 503 kts | 181° |
| 2026-04-26 15:40 | -20.34689 | 148.95526 | 40030 ft | 505 kts | 178° |
| 2026-04-26 15:41 | -20.41572 | 148.97421 | 40013 ft | 508 kts | 174° |
| 2026-04-26 15:41 | -20.48376 | 148.99335 | 40007 ft | 505 kts | 174° |
| 2026-04-26 15:42 | -20.55175 | 149.01266 | 40004 ft | 506 kts | 174° |
| 2026-04-26 15:42 | -20.61979 | 149.03193 | 40006 ft | 506 kts | 174° |
| 2026-04-26 15:43 | -20.68787 | 149.05125 | 40033 ft | 507 kts | 173° |
| 2026-04-26 15:44 | -20.78995 | 149.08026 | 40020 ft | 505 kts | 173° |
| 2026-04-26 15:44 | -20.89193 | 149.10928 | 40022 ft | 506 kts | 173° |
| 2026-04-26 15:45 | -20.99389 | 149.13832 | 40035 ft | 505 kts | 173° |
| 2026-04-26 15:46 | -21.09419 | 149.16695 | 40024 ft | 498 kts | 173° |
| 2026-04-26 15:46 | -21.15039 | 149.18296 | 40024 ft | 499 kts | 174° |
| 2026-04-26 15:47 | -21.26301 | 149.20128 | 40036 ft | 493 kts | 180° |
| 2026-04-26 15:48 | -21.33077 | 149.21126 | 40041 ft | 488 kts | 180° |
| 2026-04-26 15:48 | -21.39777 | 149.22117 | 40043 ft | 485 kts | 180° |
| 2026-04-26 15:49 | -21.46458 | 149.23103 | 40042 ft | 486 kts | 180° |
| 2026-04-26 15:49 | -21.53168 | 149.24098 | 40047 ft | 487 kts | 180° |
| 2026-04-26 15:50 | -21.59893 | 149.25095 | 40051 ft | 488 kts | 180° |
| 2026-04-26 15:50 | -21.66627 | 149.26094 | 40049 ft | 489 kts | 180° |
| 2026-04-26 15:51 | -21.73359 | 149.27094 | 40049 ft | 488 kts | 180° |
| 2026-04-26 15:51 | -21.80080 | 149.28093 | 40049 ft | 487 kts | 180° |
| 2026-04-26 15:52 | -21.86794 | 149.29092 | 40066 ft | 487 kts | 180° |
| 2026-04-26 15:52 | -21.93489 | 149.30090 | 40046 ft | 485 kts | 180° |
| 2026-04-26 15:53 | -22.00185 | 149.31086 | 40050 ft | 486 kts | 180° |
| 2026-04-26 15:53 | -22.06895 | 149.32089 | 40046 ft | 486 kts | 180° |
| 2026-04-26 15:54 | -22.13596 | 149.33089 | 40055 ft | 486 kts | 180° |
| 2026-04-26 15:54 | -22.20305 | 149.34091 | 40057 ft | 488 kts | 180° |
| 2026-04-26 15:55 | -22.26987 | 149.35092 | 40065 ft | 488 kts | 180° |
| 2026-04-26 15:55 | -22.33719 | 149.36100 | 40070 ft | 489 kts | 180° |
| 2026-04-26 15:56 | -22.40454 | 149.37111 | 40069 ft | 489 kts | 180° |
| 2026-04-26 15:56 | -22.47169 | 149.37647 | 40067 ft | 484 kts | 185° |
| 2026-04-26 15:57 | -22.53915 | 149.37998 | 40064 ft | 485 kts | 185° |
| 2026-04-26 15:57 | -22.60649 | 149.38317 | 40065 ft | 484 kts | 185° |
| 2026-04-26 15:58 | -22.67383 | 149.38651 | 40070 ft | 485 kts | 185° |
| 2026-04-26 15:58 | -22.74122 | 149.38980 | 40087 ft | 486 kts | 185° |
| 2026-04-26 15:59 | -22.80876 | 149.39312 | 40077 ft | 485 kts | 185° |
| 2026-04-26 15:59 | -22.87623 | 149.39643 | 40078 ft | 485 kts | 185° |
| 2026-04-26 16:00 | -22.94368 | 149.39975 | 40080 ft | 485 kts | 185° |
| 2026-04-26 16:00 | -23.01086 | 149.40307 | 40105 ft | 482 kts | 185° |
| 2026-04-26 16:01 | -23.07786 | 149.40635 | 40079 ft | 482 kts | 185° |
| 2026-04-26 16:01 | -23.14497 | 149.40967 | 40081 ft | 483 kts | 185° |
| 2026-04-26 16:02 | -23.21222 | 149.41299 | 40083 ft | 484 kts | 185° |
| 2026-04-26 16:02 | -23.27961 | 149.41632 | 40085 ft | 485 kts | 185° |
| 2026-04-26 16:03 | -23.34691 | 149.41966 | 40085 ft | 483 kts | 185° |
| 2026-04-26 16:03 | -23.41363 | 149.42295 | 40084 ft | 482 kts | 185° |
| 2026-04-26 16:04 | -23.48063 | 149.42628 | 40087 ft | 482 kts | 185° |
| 2026-04-26 16:04 | -23.54750 | 149.42960 | 40085 ft | 481 kts | 185° |
| 2026-04-26 16:05 | -23.61458 | 149.43292 | 40093 ft | 483 kts | 185° |
| 2026-04-26 16:05 | -23.68159 | 149.43627 | 40099 ft | 482 kts | 185° |
| 2026-04-26 16:06 | -23.74848 | 149.43959 | 40097 ft | 481 kts | 185° |
| 2026-04-26 16:06 | -23.81543 | 149.44292 | 40107 ft | 482 kts | 185° |
| 2026-04-26 16:07 | -23.88259 | 149.44627 | 40109 ft | 484 kts | 185° |
| 2026-04-26 16:07 | -23.94984 | 149.44964 | 40115 ft | 483 kts | 185° |
| 2026-04-26 16:08 | -24.01705 | 149.45299 | 40118 ft | 483 kts | 185° |
| 2026-04-26 16:08 | -24.08426 | 149.45636 | 40116 ft | 483 kts | 185° |
| 2026-04-26 16:09 | -24.15152 | 149.45971 | 40111 ft | 485 kts | 185° |
| 2026-04-26 16:09 | -24.21859 | 149.46309 | 40115 ft | 486 kts | 185° |
| 2026-04-26 16:10 | -24.28617 | 149.46648 | 40121 ft | 486 kts | 185° |
| 2026-04-26 16:10 | -24.35379 | 149.46988 | 40121 ft | 486 kts | 185° |
| 2026-04-26 16:11 | -24.42138 | 149.47328 | 40125 ft | 486 kts | 185° |
| 2026-04-26 16:11 | -24.48897 | 149.47668 | 40123 ft | 486 kts | 185° |
| 2026-04-26 16:12 | -24.55652 | 149.48009 | 40123 ft | 486 kts | 185° |
| 2026-04-26 16:12 | -24.65779 | 149.48520 | 40126 ft | 486 kts | 185° |
| 2026-04-26 16:13 | -24.72544 | 149.48861 | 40124 ft | 487 kts | 184° |
| 2026-04-26 16:13 | -24.79326 | 149.49205 | 40133 ft | 488 kts | 184° |
| 2026-04-26 16:14 | -24.86111 | 149.49548 | 40131 ft | 488 kts | 184° |
| 2026-04-26 16:15 | -24.96286 | 149.50064 | 40158 ft | 489 kts | 184° |
| 2026-04-26 16:15 | -25.03106 | 149.50411 | 40146 ft | 491 kts | 184° |
| 2026-04-26 16:16 | -25.13272 | 149.50928 | 40147 ft | 489 kts | 184° |
| 2026-04-26 16:16 | -25.20057 | 149.51274 | 40140 ft | 487 kts | 184° |
| 2026-04-26 16:17 | -25.26841 | 149.51618 | 40142 ft | 491 kts | 184° |
| 2026-04-26 16:17 | -25.33680 | 149.51969 | 40149 ft | 493 kts | 183° |
| 2026-04-26 16:18 | -25.43959 | 149.52494 | 40148 ft | 493 kts | 183° |
| 2026-04-26 16:19 | -25.54232 | 149.53019 | 40153 ft | 494 kts | 182° |
| 2026-04-26 16:20 | -25.64544 | 149.53550 | 40155 ft | 494 kts | 182° |
| 2026-04-26 16:20 | -25.74855 | 149.54080 | 40162 ft | 494 kts | 182° |
| 2026-04-26 16:21 | -25.81734 | 149.54433 | 40158 ft | 495 kts | 182° |
| 2026-04-26 16:21 | -25.88619 | 149.54788 | 40162 ft | 495 kts | 182° |
| 2026-04-26 16:22 | -25.95509 | 149.55144 | 40163 ft | 496 kts | 182° |
| 2026-04-26 16:22 | -26.02399 | 149.55500 | 40166 ft | 496 kts | 182° |
| 2026-04-26 16:23 | -26.09294 | 149.55855 | 40168 ft | 496 kts | 181° |
| 2026-04-26 16:23 | -26.16135 | 149.56211 | 40166 ft | 495 kts | 181° |
| 2026-04-26 16:24 | -26.23009 | 149.56566 | 40164 ft | 494 kts | 181° |
| 2026-04-26 16:24 | -26.29871 | 149.56923 | 40161 ft | 493 kts | 181° |
| 2026-04-26 16:25 | -26.36736 | 149.57279 | 40174 ft | 494 kts | 181° |
| 2026-04-26 16:25 | -26.43610 | 149.57637 | 40176 ft | 495 kts | 181° |
| 2026-04-26 16:26 | -26.49334 | 149.57934 | 40176 ft | 496 kts | 181° |
| 2026-04-26 16:26 | -26.57399 | 149.58355 | 40197 ft | 497 kts | 181° |
| 2026-04-26 16:27 | -26.64321 | 149.58716 | 40180 ft | 498 kts | 181° |
| 2026-04-26 16:27 | -26.71227 | 149.59078 | 40177 ft | 496 kts | 181° |
| 2026-04-26 16:28 | -26.78119 | 149.59438 | 40173 ft | 495 kts | 181° |
| 2026-04-26 16:28 | -26.84991 | 149.59798 | 40185 ft | 494 kts | 180° |
| 2026-04-26 16:29 | -26.91832 | 149.60154 | 40167 ft | 497 kts | 180° |
| 2026-04-26 16:29 | -26.98749 | 149.60521 | 40187 ft | 499 kts | 180° |
| 2026-04-26 16:30 | -27.05690 | 149.60886 | 40189 ft | 499 kts | 180° |
| 2026-04-26 16:30 | -27.11497 | 149.61189 | 40192 ft | 498 kts | 180° |
| 2026-04-26 16:31 | -27.18414 | 149.61557 | 40191 ft | 497 kts | 180° |
| 2026-04-26 16:31 | -27.25317 | 149.61919 | 40189 ft | 496 kts | 180° |
| 2026-04-26 16:32 | -27.32165 | 149.62282 | 40186 ft | 495 kts | 180° |
| 2026-04-26 16:32 | -27.39048 | 149.62645 | 40176 ft | 495 kts | 179° |
| 2026-04-26 16:33 | -27.45915 | 149.63011 | 40178 ft | 494 kts | 179° |
| 2026-04-26 16:33 | -27.52788 | 149.63374 | 40188 ft | 495 kts | 179° |
| 2026-04-26 16:34 | -27.59671 | 149.63740 | 40188 ft | 496 kts | 179° |
| 2026-04-26 16:34 | -27.66568 | 149.64106 | 40200 ft | 496 kts | 179° |
| 2026-04-26 16:35 | -27.73469 | 149.64474 | 40193 ft | 496 kts | 179° |
| 2026-04-26 16:35 | -27.80358 | 149.64841 | 40194 ft | 495 kts | 179° |
| 2026-04-26 16:36 | -27.87235 | 149.65208 | 40192 ft | 494 kts | 179° |
| 2026-04-26 16:36 | -27.94100 | 149.65575 | 40191 ft | 493 kts | 178° |
| 2026-04-26 16:37 | -28.00950 | 149.65942 | 40194 ft | 493 kts | 178° |
| 2026-04-26 16:37 | -28.07816 | 149.66309 | 40194 ft | 495 kts | 178° |
| 2026-04-26 16:38 | -28.14697 | 149.66679 | 40201 ft | 496 kts | 178° |
| 2026-04-26 16:38 | -28.21506 | 149.67760 | 40198 ft | 496 kts | 166° |
| 2026-04-26 16:39 | -28.28188 | 149.69718 | 40202 ft | 496 kts | 166° |
| 2026-04-26 16:39 | -28.34877 | 149.71656 | 40198 ft | 496 kts | 166° |
| 2026-04-26 16:40 | -28.41566 | 149.73606 | 40205 ft | 496 kts | 166° |
| 2026-04-26 16:40 | -28.48241 | 149.75553 | 40197 ft | 494 kts | 166° |
| 2026-04-26 16:41 | -28.54848 | 149.77481 | 40199 ft | 493 kts | 166° |
| 2026-04-26 16:41 | -28.61488 | 149.79422 | 40197 ft | 493 kts | 166° |
| 2026-04-26 16:42 | -28.68127 | 149.81365 | 40198 ft | 493 kts | 166° |
| 2026-04-26 16:42 | -28.74758 | 149.83309 | 40196 ft | 491 kts | 166° |
| 2026-04-26 16:43 | -28.81369 | 149.85249 | 40191 ft | 491 kts | 166° |
| 2026-04-26 16:43 | -28.87990 | 149.87195 | 40192 ft | 492 kts | 166° |
| 2026-04-26 16:44 | -28.94628 | 149.89150 | 40192 ft | 493 kts | 166° |
| 2026-04-26 16:44 | -29.01279 | 149.91109 | 40189 ft | 493 kts | 166° |
| 2026-04-26 16:45 | -29.07916 | 149.93068 | 40194 ft | 492 kts | 166° |
| 2026-04-26 16:45 | -29.14539 | 149.95025 | 40196 ft | 491 kts | 166° |
| 2026-04-26 16:46 | -29.21148 | 149.96980 | 40191 ft | 490 kts | 166° |
| 2026-04-26 16:46 | -29.27743 | 149.98934 | 40193 ft | 489 kts | 166° |
| 2026-04-26 16:47 | -29.34330 | 150.00889 | 40190 ft | 489 kts | 166° |
| 2026-04-26 16:47 | -29.40933 | 150.02850 | 40189 ft | 491 kts | 166° |
| 2026-04-26 16:48 | -29.47556 | 150.04820 | 40202 ft | 492 kts | 166° |
| 2026-04-26 16:48 | -29.54191 | 150.06796 | 40205 ft | 492 kts | 166° |
| 2026-04-26 16:49 | -29.60789 | 150.08763 | 40207 ft | 489 kts | 166° |
| 2026-04-26 16:49 | -29.67367 | 150.10728 | 40204 ft | 488 kts | 166° |
| 2026-04-26 16:50 | -29.73937 | 150.12693 | 40208 ft | 488 kts | 166° |
| 2026-04-26 16:50 | -29.80525 | 150.14666 | 40213 ft | 489 kts | 166° |
| 2026-04-26 16:51 | -29.87113 | 150.16642 | 40218 ft | 489 kts | 166° |
| 2026-04-26 16:51 | -29.93655 | 150.18608 | 40218 ft | 489 kts | 166° |
| 2026-04-26 16:52 | -29.99166 | 150.20263 | 40219 ft | 488 kts | 166° |
| 2026-04-26 16:52 | -30.06791 | 150.22560 | 40220 ft | 486 kts | 166° |
| 2026-04-26 16:53 | -30.13296 | 150.24521 | 40220 ft | 486 kts | 166° |
| 2026-04-26 16:53 | -30.19881 | 150.26510 | 40230 ft | 487 kts | 166° |
| 2026-04-26 16:54 | -30.26442 | 150.28494 | 40235 ft | 488 kts | 166° |
| 2026-04-26 16:54 | -30.33025 | 150.30488 | 40243 ft | 489 kts | 166° |
| 2026-04-26 16:55 | -30.39571 | 150.32473 | 40243 ft | 485 kts | 166° |
| 2026-04-26 16:55 | -30.46098 | 150.34454 | 40242 ft | 484 kts | 166° |
| 2026-04-26 16:56 | -30.55886 | 150.37432 | 40230 ft | 485 kts | 166° |
| 2026-04-26 16:57 | -30.62421 | 150.39423 | 40239 ft | 485 kts | 166° |
| 2026-04-26 16:57 | -30.72197 | 150.42407 | 40241 ft | 484 kts | 166° |
| 2026-04-26 16:58 | -30.77609 | 150.44062 | 40241 ft | 484 kts | 166° |
| 2026-04-26 16:59 | -30.88427 | 150.47374 | 40237 ft | 482 kts | 166° |
| 2026-04-26 17:00 | -31.01380 | 150.51352 | 40235 ft | 481 kts | 166° |
| 2026-04-26 17:00 | -31.11086 | 150.54340 | 40239 ft | 481 kts | 166° |
| 2026-04-26 17:01 | -31.17552 | 150.56334 | 40239 ft | 480 kts | 166° |
| 2026-04-26 17:01 | -31.24007 | 150.58327 | 40241 ft | 480 kts | 166° |
| 2026-04-26 17:02 | -31.30464 | 150.60324 | 40248 ft | 480 kts | 166° |
| 2026-04-26 17:02 | -31.36921 | 150.62323 | 40246 ft | 480 kts | 166° |
| 2026-04-26 17:03 | -31.43380 | 150.64327 | 40261 ft | 480 kts | 166° |
| 2026-04-26 17:03 | -31.49826 | 150.66329 | 40258 ft | 479 kts | 166° |
| 2026-04-26 17:04 | -31.56268 | 150.68332 | 40261 ft | 479 kts | 165° |
| 2026-04-26 17:04 | -31.62720 | 150.70341 | 40267 ft | 480 kts | 165° |
| 2026-04-26 17:05 | -31.69180 | 150.72356 | 40275 ft | 479 kts | 166° |
| 2026-04-26 17:05 | -31.75616 | 150.74366 | 40278 ft | 478 kts | 166° |
| 2026-04-26 17:06 | -31.82003 | 150.76364 | 40277 ft | 478 kts | 165° |
| 2026-04-26 17:06 | -31.88431 | 150.78378 | 40279 ft | 478 kts | 165° |
| 2026-04-26 17:07 | -31.94861 | 150.80395 | 40277 ft | 478 kts | 165° |
| 2026-04-26 17:07 | -32.01294 | 150.82416 | 40274 ft | 478 kts | 165° |
| 2026-04-26 17:08 | -32.07818 | 150.83873 | 40289 ft | 478 kts | 172° |
| 2026-04-26 17:08 | -32.14409 | 150.85007 | 40292 ft | 479 kts | 172° |
| 2026-04-26 17:09 | -32.19934 | 150.85987 | 40287 ft | 479 kts | 172° |
| 2026-04-26 17:09 | -32.27597 | 150.87326 | 40284 ft | 478 kts | 172° |
| 2026-04-26 17:10 | -32.30863 | 150.87901 | 39709 ft | 476 kts | 172° |
| 2026-04-26 17:10 | -32.34156 | 150.88482 | 38995 ft | 478 kts | 172° |
| 2026-04-26 17:10 | -32.37447 | 150.89061 | 38255 ft | 477 kts | 172° |
| 2026-04-26 17:10 | -32.40724 | 150.89637 | 37605 ft | 474 kts | 172° |
| 2026-04-26 17:11 | -32.43977 | 150.90210 | 36954 ft | 471 kts | 172° |
| 2026-04-26 17:11 | -32.47215 | 150.90782 | 36275 ft | 469 kts | 172° |
| 2026-04-26 17:11 | -32.50441 | 150.91351 | 35575 ft | 468 kts | 172° |
| 2026-04-26 17:11 | -32.53658 | 150.91919 | 34854 ft | 467 kts | 172° |
| 2026-04-26 17:12 | -32.60043 | 150.93048 | 33312 ft | 466 kts | 172° |
| 2026-04-26 17:12 | -32.63293 | 150.93623 | 32506 ft | 467 kts | 172° |
| 2026-04-26 17:13 | -32.69741 | 150.94766 | 30807 ft | 478 kts | 171° |
| 2026-04-26 17:13 | -32.73052 | 150.95354 | 29842 ft | 482 kts | 171° |
| 2026-04-26 17:13 | -32.79635 | 150.96523 | 28044 ft | 474 kts | 171° |
| 2026-04-26 17:14 | -32.82886 | 150.97101 | 27174 ft | 471 kts | 171° |
| 2026-04-26 17:14 | -32.89312 | 150.98244 | 25526 ft | 463 kts | 171° |
| 2026-04-26 17:14 | -32.92479 | 150.98809 | 24694 ft | 457 kts | 171° |
| 2026-04-26 17:15 | -32.98715 | 150.99921 | 23016 ft | 449 kts | 171° |
| 2026-04-26 17:15 | -33.01729 | 151.00458 | 22225 ft | 444 kts | 171° |
| 2026-04-26 17:15 | -33.04820 | 151.01011 | 21422 ft | 438 kts | 171° |
| 2026-04-26 17:16 | -33.07812 | 151.01546 | 20646 ft | 434 kts | 171° |
| 2026-04-26 17:16 | -33.10789 | 151.02079 | 19878 ft | 429 kts | 170° |
| 2026-04-26 17:16 | -33.13724 | 151.02604 | 19121 ft | 423 kts | 170° |
| 2026-04-26 17:16 | -33.16622 | 151.03123 | 18338 ft | 419 kts | 170° |
| 2026-04-26 17:17 | -33.19488 | 151.03638 | 17595 ft | 413 kts | 170° |
| 2026-04-26 17:17 | -33.22308 | 151.04144 | 16874 ft | 407 kts | 171° |
| 2026-04-26 17:17 | -33.25085 | 151.04644 | 16260 ft | 399 kts | 171° |
| 2026-04-26 17:17 | -33.27811 | 151.05168 | 15741 ft | 396 kts | 170° |
| 2026-04-26 17:18 | -33.30536 | 151.05708 | 15214 ft | 397 kts | 170° |
| 2026-04-26 17:18 | -33.33261 | 151.06232 | 14693 ft | 396 kts | 171° |
| 2026-04-26 17:18 | -33.35963 | 151.06744 | 14173 ft | 394 kts | 171° |
| 2026-04-26 17:18 | -33.38667 | 151.07261 | 13624 ft | 390 kts | 171° |
| 2026-04-26 17:19 | -33.43978 | 151.08284 | 12601 ft | 380 kts | 171° |
| 2026-04-26 17:19 | -33.46536 | 151.08774 | 12103 ft | 363 kts | 171° |
| 2026-04-26 17:19 | -33.48959 | 151.09239 | 11633 ft | 353 kts | 171° |
| 2026-04-26 17:20 | -33.51362 | 151.09702 | 10954 ft | 348 kts | 171° |
| 2026-04-26 17:20 | -33.52169 | 151.09857 | 10785 ft | 346 kts | 171° |
| 2026-04-26 17:20 | -33.56034 | 151.10602 | 10002 ft | 331 kts | 171° |
| 2026-04-26 17:20 | -33.58278 | 151.11034 | 9556 ft | 322 kts | 171° |
| 2026-04-26 17:21 | -33.60455 | 151.11452 | 9137 ft | 312 kts | 170° |
| 2026-04-26 17:21 | -33.61855 | 151.11723 | 8971 ft | 303 kts | 170° |
| 2026-04-26 17:21 | -33.63867 | 151.12119 | 8916 ft | 283 kts | 170° |
| 2026-04-26 17:21 | -33.65770 | 151.12497 | 8869 ft | 274 kts | 170° |
| 2026-04-26 17:22 | -33.67644 | 151.12868 | 8847 ft | 272 kts | 170° |
| 2026-04-26 17:22 | -33.69513 | 151.13236 | 8819 ft | 272 kts | 170° |
| 2026-04-26 17:22 | -33.71374 | 151.13602 | 8801 ft | 271 kts | 170° |
| 2026-04-26 17:22 | -33.73237 | 151.13961 | 8800 ft | 272 kts | 171° |
| 2026-04-26 17:23 | -33.75105 | 151.14322 | 8793 ft | 272 kts | 170° |
| 2026-04-26 17:23 | -33.76970 | 151.14683 | 8789 ft | 271 kts | 170° |
| 2026-04-26 17:23 | -33.78823 | 151.15044 | 8790 ft | 272 kts | 171° |
| 2026-04-26 17:23 | -33.80704 | 151.15383 | 8786 ft | 271 kts | 175° |
| 2026-04-26 17:24 | -33.82556 | 151.15026 | 8786 ft | 271 kts | 197° |
| 2026-04-26 17:24 | -33.84399 | 151.14485 | 8792 ft | 274 kts | 191° |
| 2026-04-26 17:24 | -33.86261 | 151.14013 | 8789 ft | 273 kts | 192° |
| 2026-04-26 17:24 | -33.88110 | 151.13492 | 8791 ft | 274 kts | 193° |
| 2026-04-26 17:25 | -33.89962 | 151.12942 | 8793 ft | 273 kts | 193° |
| 2026-04-26 17:25 | -33.91809 | 151.12404 | 8801 ft | 273 kts | 193° |
| 2026-04-26 17:25 | -33.93660 | 151.11874 | 8794 ft | 273 kts | 193° |
| 2026-04-26 17:25 | -33.95510 | 151.11343 | 8801 ft | 273 kts | 193° |
| 2026-04-26 17:26 | -33.97364 | 151.10808 | 8692 ft | 276 kts | 193° |
| 2026-04-26 17:26 | -33.99234 | 151.10267 | 8315 ft | 274 kts | 193° |
| 2026-04-26 17:26 | -34.01070 | 151.09737 | 7950 ft | 271 kts | 193° |
| 2026-04-26 17:26 | -34.02889 | 151.09211 | 7576 ft | 266 kts | 192° |
| 2026-04-26 17:27 | -34.04653 | 151.08701 | 7218 ft | 255 kts | 193° |
| 2026-04-26 17:27 | -34.06349 | 151.08211 | 7011 ft | 245 kts | 193° |
| 2026-04-26 17:27 | -34.07952 | 151.07824 | 6757 ft | 226 kts | 182° |
| 2026-04-26 17:27 | -34.09440 | 151.08120 | 6538 ft | 209 kts | 166° |
| 2026-04-26 17:28 | -34.10820 | 151.08465 | 6373 ft | 199 kts | 168° |
| 2026-04-26 17:28 | -34.12202 | 151.08816 | 6112 ft | 199 kts | 168° |
| 2026-04-26 17:28 | -34.13481 | 151.09147 | 5913 ft | 174 kts | 167° |
| 2026-04-26 17:28 | -34.14588 | 151.09435 | 5813 ft | 161 kts | 167° |
| 2026-04-26 17:29 | -34.15658 | 151.09712 | 5620 ft | 154 kts | 168° |
| 2026-04-26 17:29 | -34.16369 | 151.09897 | 5473 ft | 155 kts | 167° |
| 2026-04-26 17:29 | -34.17567 | 151.10673 | 5027 ft | 152 kts | 131° |
| 2026-04-26 17:29 | -34.17938 | 151.11865 | 4668 ft | 157 kts | 97° |
| 2026-04-26 17:30 | -34.17638 | 151.13129 | 4325 ft | 162 kts | 60° |
| 2026-04-26 17:30 | -34.16871 | 151.14120 | 4068 ft | 161 kts | 47° |
| 2026-04-26 17:30 | -34.16089 | 151.15080 | 3831 ft | 159 kts | 47° |
| 2026-04-26 17:30 | -34.15325 | 151.16043 | 3586 ft | 158 kts | 47° |
| 2026-04-26 17:31 | -34.14569 | 151.17002 | 3360 ft | 157 kts | 47° |
| 2026-04-26 17:31 | -34.13822 | 151.17952 | 3114 ft | 155 kts | 46° |
| 2026-04-26 17:31 | -34.13087 | 151.18884 | 2859 ft | 151 kts | 45° |
| 2026-04-26 17:31 | -34.12382 | 151.19779 | 2794 ft | 146 kts | 44° |
| 2026-04-26 17:32 | -34.11655 | 151.20694 | 2808 ft | 153 kts | 45° |
| 2026-04-26 17:32 | -34.10846 | 151.21496 | 2757 ft | 151 kts | 22° |
| 2026-04-26 17:32 | -34.09801 | 151.21510 | 2686 ft | 155 kts | 354° |
| 2026-04-26 17:32 | -34.08746 | 151.21309 | 2494 ft | 152 kts | 350° |
| 2026-04-26 17:33 | -34.07707 | 151.21062 | 2292 ft | 151 kts | 349° |
| 2026-04-26 17:33 | -34.06690 | 151.20805 | 2091 ft | 149 kts | 348° |
| 2026-04-26 17:33 | -34.05678 | 151.20537 | 1891 ft | 149 kts | 348° |
| 2026-04-26 17:34 | -34.03669 | 151.19982 | 1477 ft | 148 kts | 346° |
| 2026-04-26 17:34 | -34.02668 | 151.19711 | 1293 ft | 147 kts | 348° |
| 2026-04-26 17:34 | -34.01664 | 151.19452 | 1100 ft | 148 kts | 347° |
| 2026-04-26 17:34 | -34.00670 | 151.19192 | 920 ft | 146 kts | 346° |
| 2026-04-26 17:35 | -33.99677 | 151.18927 | 728 ft | 146 kts | 346° |
| 2026-04-26 17:35 | -33.98680 | 151.18655 | 533 ft | 146 kts | 345° |
| 2026-04-26 17:35 | -33.97688 | 151.18394 | 313 ft | 146 kts | 346° |
| 2026-04-26 17:35 | -33.96704 | 151.18138 | 116 ft | 143 kts | 345° |
| 2026-04-26 17:36 | -33.95785 | 151.17886 | 27 ft | 120 kts | 348° |
| 2026-04-26 17:36 | -33.95101 | 151.17716 | 28 ft | 64 kts | 347° |
| 2026-04-26 17:36 | -33.94820 | 151.17651 | 28 ft | 32 kts | 356° |
| 2026-04-26 17:36 | -33.94651 | 151.17651 | 28 ft | 18 kts | 3° |
| 2026-04-26 17:37 | -33.94533 | 151.17677 | 29 ft | 17 kts | 17° |
| 2026-04-26 17:37 | -33.94424 | 151.17719 | 29 ft | 17 kts | 18° |
| 2026-04-26 17:37 | -33.94409 | 151.17725 | 29 ft | 0 kts | 18° |
| 2026-04-26 17:39 | -33.94398 | 151.17730 | 29 ft | 6 kts | 18° |
| 2026-04-26 17:39 | -33.94320 | 151.17764 | 27 ft | 15 kts | 33° |
| 2026-04-26 17:39 | -33.94283 | 151.17853 | 30 ft | 11 kts | 72° |
| 2026-04-26 17:40 | -33.94283 | 151.17940 | 30 ft | 10 kts | 116° |
| 2026-04-26 17:40 | -33.94318 | 151.17975 | 30 ft | 10 kts | 156° |
| 2026-04-26 17:40 | -33.94322 | 151.17977 | 30 ft | 0 kts | 157° |